Wetterdaten: Dienstag, 27.01.2026
Datum Zeit Temp. Aussen Temp. o. S. Temp +5cm Feuchte Auss Luftdruck Regen Sonnenschein Regendauer Solar Windböen Empfang
27.01.2026 00:00 0,0 °C -0,6 °C -3,3 °C 96 % 1005,3 hPa 0,0 l/m² 0 min 0 min 0 W/m² 6,4 km/h (2 Bft) 100,00 %
27.01.2026 00:02 0,0 °C -0,6 °C -3,3 °C 96 % 1005,2 hPa 0,0 l/m² 0 min 0 min 0 W/m² 12,9 km/h (3 Bft) 100,00 %
27.01.2026 00:04 0,0 °C -0,6 °C -3,3 °C 96 % 1005,2 hPa 0,0 l/m² 0 min 0 min 0 W/m² 6,4 km/h (2 Bft) 100,00 %
27.01.2026 00:07 0,0 °C -0,6 °C -3,3 °C 96 % 1005,2 hPa 0,0 l/m² 0 min 0 min 0 W/m² 9,7 km/h (2 Bft) 100,00 %
27.01.2026 00:08 0,0 °C -0,6 °C -3,3 °C 96 % 1005,1 hPa 0,0 l/m² 0 min 0 min 0 W/m² 9,7 km/h (2 Bft) 100,00 %
27.01.2026 00:12 0,0 °C -0,6 °C -3,3 °C 96 % 1005,1 hPa 0,0 l/m² 0 min 0 min 0 W/m² 0,0 km/h (0 Bft) 100,00 %
27.01.2026 00:14 -0,1 °C -0,6 °C -3,3 °C 96 % 1005,1 hPa 0,0 l/m² 0 min 0 min 0 W/m² 0,0 km/h (0 Bft) 100,00 %
27.01.2026 00:16 -0,1 °C -0,6 °C -3,3 °C 96 % 1005,1 hPa 0,0 l/m² 0 min 0 min 0 W/m² 0,0 km/h (0 Bft) 98,18 %
27.01.2026 00:18 0,0 °C -0,6 °C -3,3 °C 96 % 1005,0 hPa 0,0 l/m² 0 min 0 min 0 W/m² 0,0 km/h (0 Bft) 97,44 %
27.01.2026 00:20 0,0 °C -0,6 °C -3,3 °C 96 % 1004,9 hPa 0,0 l/m² 0 min 0 min 0 W/m² 0,0 km/h (0 Bft) 97,83 %
27.01.2026 00:22 -0,1 °C -0,6 °C -3,3 °C 96 % 1004,9 hPa 0,0 l/m² 0 min 0 min 0 W/m² 0,0 km/h (0 Bft) 97,87 %
27.01.2026 00:24 -0,1 °C -0,6 °C -3,3 °C 96 % 1004,9 hPa 0,0 l/m² 0 min 0 min 0 W/m² 3,2 km/h (1 Bft) 97,87 %
27.01.2026 00:26 0,0 °C -0,6 °C -3,3 °C 96 % 1004,8 hPa 0,0 l/m² 0 min 0 min 0 W/m² 6,4 km/h (2 Bft) 97,87 %
27.01.2026 00:28 -0,1 °C -0,6 °C -3,3 °C 96 % 1004,7 hPa 0,0 l/m² 0 min 0 min 0 W/m² 0,0 km/h (0 Bft) 97,87 %
27.01.2026 00:30 -0,1 °C -0,6 °C -3,3 °C 96 % 1004,7 hPa 0,0 l/m² 0 min 0 min 0 W/m² 0,0 km/h (0 Bft) 95,65 %
27.01.2026 00:32 -0,1 °C -0,6 °C -3,3 °C 96 % 1004,8 hPa 0,0 l/m² 0 min 0 min 0 W/m² 0,0 km/h (0 Bft) 97,87 %
27.01.2026 00:34 -0,1 °C -0,6 °C -3,3 °C 96 % 1004,8 hPa 0,0 l/m² 0 min 0 min 0 W/m² 0,0 km/h (0 Bft) 95,74 %
27.01.2026 00:36 -0,1 °C -0,6 °C -3,3 °C 96 % 1004,7 hPa 0,0 l/m² 0 min 0 min 0 W/m² 3,2 km/h (1 Bft) 97,87 %
27.01.2026 00:38 -0,1 °C -0,6 °C -3,3 °C 96 % 1004,7 hPa 0,0 l/m² 0 min 0 min 0 W/m² 3,2 km/h (1 Bft) 97,87 %
27.01.2026 00:40 -0,1 °C -0,6 °C -3,3 °C 96 % 1004,6 hPa 0,0 l/m² 0 min 0 min 0 W/m² 0,0 km/h (0 Bft) 39,39 %
27.01.2026 00:42 -0,1 °C -0,6 °C -3,3 °C 96 % 1004,7 hPa 0,0 l/m² 0 min 0 min 0 W/m² 0,0 km/h (0 Bft) 94,35 %
27.01.2026 00:44 -0,1 °C -0,6 °C -3,3 °C 96 % 1004,6 hPa 0,0 l/m² 0 min 0 min 0 W/m² 0,0 km/h (0 Bft) 97,78 %
27.01.2026 00:46 -0,1 °C -0,6 °C -3,3 °C 96 % 1004,6 hPa 0,0 l/m² 0 min 0 min 0 W/m² 0,0 km/h (0 Bft) 96,43 %
27.01.2026 00:48 -0,1 °C -0,6 °C -3,3 °C 96 % 1004,6 hPa 0,0 l/m² 0 min 0 min 0 W/m² 0,0 km/h (0 Bft) 97,37 %
27.01.2026 00:50 -0,1 °C -0,6 °C -3,3 °C 96 % 1004,6 hPa 0,0 l/m² 0 min 0 min 0 W/m² 0,0 km/h (0 Bft) 98,15 %
27.01.2026 00:52 -0,1 °C -0,6 °C -3,3 °C 96 % 1004,6 hPa 0,0 l/m² 0 min 0 min 0 W/m² 3,2 km/h (1 Bft) 97,50 %
27.01.2026 00:54 -0,1 °C -0,6 °C -3,3 °C 96 % 1004,6 hPa 0,0 l/m² 0 min 0 min 0 W/m² 3,2 km/h (1 Bft) 98,11 %
27.01.2026 00:56 -0,1 °C -0,6 °C -3,3 °C 96 % 1004,6 hPa 0,0 l/m² 0 min 0 min 0 W/m² 0,0 km/h (0 Bft) 100,00 %
27.01.2026 00:58 -0,1 °C -0,6 °C -3,3 °C 96 % 1004,5 hPa 0,0 l/m² 0 min 0 min 0 W/m² 3,2 km/h (1 Bft) 100,00 %
27.01.2026 01:00 -0,1 °C -0,6 °C -3,3 °C 96 % 1004,4 hPa 0,0 l/m² 0 min 0 min 0 W/m² 3,2 km/h (1 Bft) 100,00 %
27.01.2026 01:02 -0,1 °C -0,6 °C -3,9 °C 96 % 1004,4 hPa 0,0 l/m² 0 min 0 min 0 W/m² 0,0 km/h (0 Bft) 94,74 %
27.01.2026 01:04 -0,1 °C -0,6 °C -3,9 °C 96 % 1004,3 hPa 0,0 l/m² 0 min 0 min 0 W/m² 3,2 km/h (1 Bft) 100,00 %
27.01.2026 01:06 -0,1 °C -0,6 °C -3,9 °C 96 % 1004,3 hPa 0,0 l/m² 0 min 0 min 0 W/m² 6,4 km/h (2 Bft) 100,00 %
27.01.2026 01:08 -0,1 °C -0,6 °C -3,9 °C 96 % 1004,3 hPa 0,0 l/m² 0 min 0 min 0 W/m² 3,2 km/h (1 Bft) 100,00 %
27.01.2026 01:10 -0,1 °C -0,6 °C -3,9 °C 96 % 1004,3 hPa 0,0 l/m² 0 min 0 min 0 W/m² 3,2 km/h (1 Bft) 100,00 %
27.01.2026 01:12 -0,1 °C -0,6 °C -3,9 °C 96 % 1004,3 hPa 0,0 l/m² 0 min 0 min 0 W/m² 6,4 km/h (2 Bft) 97,50 %
27.01.2026 01:14 -0,1 °C -0,6 °C -3,9 °C 96 % 1004,2 hPa 0,0 l/m² 0 min 0 min 0 W/m² 3,2 km/h (1 Bft) 100,00 %
27.01.2026 01:16 -0,1 °C -0,6 °C -3,9 °C 96 % 1004,2 hPa 0,0 l/m² 0 min 0 min 0 W/m² 6,4 km/h (2 Bft) 98,21 %
27.01.2026 01:18 -0,1 °C -0,6 °C -3,9 °C 96 % 1004,2 hPa 0,0 l/m² 0 min 0 min 0 W/m² 3,2 km/h (1 Bft) 97,78 %
27.01.2026 01:20 -0,1 °C -0,6 °C -3,9 °C 96 % 1004,2 hPa 0,0 l/m² 0 min 0 min 0 W/m² 6,4 km/h (2 Bft) 94,87 %
27.01.2026 01:22 -0,1 °C -0,6 °C -3,9 °C 96 % 1004,2 hPa 0,0 l/m² 0 min 0 min 0 W/m² 6,4 km/h (2 Bft) 89,36 %
27.01.2026 01:24 -0,1 °C -0,6 °C -3,9 °C 96 % 1004,1 hPa 0,0 l/m² 0 min 0 min 0 W/m² 3,2 km/h (1 Bft) 64,44 %
27.01.2026 01:26 -0,1 °C -0,6 °C -3,9 °C 96 % 1004,1 hPa 0,0 l/m² 0 min 0 min 0 W/m² 3,2 km/h (1 Bft) 97,78 %
27.01.2026 01:28 -0,1 °C -0,6 °C -3,9 °C 96 % 1004,2 hPa 0,0 l/m² 0 min 0 min 0 W/m² 3,2 km/h (1 Bft) 96,43 %
27.01.2026 01:30 -0,1 °C -0,6 °C -3,9 °C 96 % 1004,3 hPa 0,0 l/m² 0 min 0 min 0 W/m² 0,0 km/h (0 Bft) 94,87 %
27.01.2026 01:32 -0,1 °C -0,6 °C -3,9 °C 96 % 1004,2 hPa 0,0 l/m² 0 min 0 min 0 W/m² 0,0 km/h (0 Bft) 95,74 %
27.01.2026 01:34 -0,1 °C -0,6 °C -3,9 °C 96 % 1004,2 hPa 0,0 l/m² 0 min 0 min 0 W/m² 3,2 km/h (1 Bft) 97,87 %
27.01.2026 01:36 -0,1 °C -0,6 °C -3,9 °C 96 % 1004,2 hPa 0,0 l/m² 0 min 0 min 0 W/m² 3,2 km/h (1 Bft) 97,87 %
27.01.2026 01:38 -0,1 °C -0,6 °C -3,9 °C 96 % 1004,2 hPa 0,0 l/m² 0 min 0 min 0 W/m² 3,2 km/h (1 Bft) 97,78 %
27.01.2026 01:40 -0,1 °C -0,6 °C -3,9 °C 96 % 1004,1 hPa 0,0 l/m² 0 min 0 min 0 W/m² 0,0 km/h (0 Bft) 97,92 %
27.01.2026 01:42 -0,1 °C -0,6 °C -3,9 °C 96 % 1004,2 hPa 0,0 l/m² 0 min 0 min 0 W/m² 0,0 km/h (0 Bft) 98,08 %
27.01.2026 01:44 -0,1 °C -0,6 °C -3,9 °C 96 % 1004,1 hPa 0,0 l/m² 0 min 0 min 0 W/m² 0,0 km/h (0 Bft) 97,78 %
27.01.2026 01:46 -0,2 °C -0,6 °C -3,9 °C 96 % 1004,1 hPa 0,0 l/m² 0 min 0 min 0 W/m² 3,2 km/h (1 Bft) 97,96 %
27.01.2026 01:48 -0,2 °C -0,6 °C -3,9 °C 96 % 1004,2 hPa 0,0 l/m² 0 min 0 min 0 W/m² 0,0 km/h (0 Bft) 95,65 %
27.01.2026 01:50 -0,2 °C -0,6 °C -3,9 °C 96 % 1004,2 hPa 0,0 l/m² 0 min 0 min 0 W/m² 0,0 km/h (0 Bft) 95,83 %
27.01.2026 01:52 -0,2 °C -0,6 °C -3,9 °C 96 % 1004,2 hPa 0,0 l/m² 0 min 0 min 0 W/m² 0,0 km/h (0 Bft) 97,73 %
27.01.2026 01:54 -0,2 °C -0,6 °C -3,9 °C 96 % 1004,2 hPa 0,0 l/m² 0 min 0 min 0 W/m² 0,0 km/h (0 Bft) 100,00 %
27.01.2026 01:56 -0,2 °C -0,6 °C -3,9 °C 96 % 1004,1 hPa 0,0 l/m² 0 min 0 min 0 W/m² 0,0 km/h (0 Bft) 100,00 %
27.01.2026 01:58 -0,2 °C -0,6 °C -3,9 °C 96 % 1004,1 hPa 0,0 l/m² 0 min 0 min 0 W/m² 0,0 km/h (0 Bft) 100,00 %
27.01.2026 02:00 -0,2 °C -0,6 °C -3,9 °C 96 % 1004,0 hPa 0,0 l/m² 0 min 0 min 0 W/m² 3,2 km/h (1 Bft) 100,00 %
27.01.2026 02:02 -0,2 °C -0,6 °C -3,9 °C 96 % 1004,0 hPa 0,0 l/m² 0 min 0 min 0 W/m² 0,0 km/h (0 Bft) 100,00 %
27.01.2026 02:04 -0,2 °C -0,6 °C -3,9 °C 96 % 1004,0 hPa 0,0 l/m² 0 min 0 min 0 W/m² 0,0 km/h (0 Bft) 100,00 %
27.01.2026 02:06 -0,2 °C -0,6 °C -3,9 °C 96 % 1003,9 hPa 0,0 l/m² 0 min 0 min 0 W/m² 3,2 km/h (1 Bft) 98,28 %
27.01.2026 02:08 -0,2 °C -0,6 °C -3,9 °C 96 % 1003,8 hPa 0,0 l/m² 0 min 0 min 0 W/m² 3,2 km/h (1 Bft) 100,00 %
27.01.2026 02:10 -0,2 °C -0,6 °C -3,9 °C 96 % 1003,9 hPa 0,0 l/m² 0 min 0 min 0 W/m² 3,2 km/h (1 Bft) 98,28 %
27.01.2026 02:14 -0,2 °C -0,6 °C -3,9 °C 96 % 1003,9 hPa 0,0 l/m² 0 min 0 min 0 W/m² 0,0 km/h (0 Bft) 100,00 %
27.01.2026 02:16 -0,2 °C -0,6 °C -3,9 °C 96 % 1003,9 hPa 0,0 l/m² 0 min 0 min 0 W/m² 3,2 km/h (1 Bft) 98,11 %
27.01.2026 02:18 -0,2 °C -0,6 °C -3,9 °C 96 % 1004,0 hPa 0,0 l/m² 0 min 0 min 0 W/m² 3,2 km/h (1 Bft) 97,62 %
27.01.2026 02:20 -0,2 °C -0,6 °C -3,9 °C 96 % 1004,0 hPa 0,0 l/m² 0 min 0 min 0 W/m² 3,2 km/h (1 Bft) 96,08 %
27.01.2026 02:22 -0,2 °C -0,6 °C -3,9 °C 96 % 1003,9 hPa 0,0 l/m² 0 min 0 min 0 W/m² 3,2 km/h (1 Bft) 93,62 %
27.01.2026 02:24 -0,2 °C -0,6 °C -3,9 °C 96 % 1003,8 hPa 0,0 l/m² 0 min 0 min 0 W/m² 0,0 km/h (0 Bft) 97,73 %
27.01.2026 02:26 -0,2 °C -0,6 °C -3,9 °C 96 % 1003,8 hPa 0,0 l/m² 0 min 0 min 0 W/m² 3,2 km/h (1 Bft) 94,00 %
27.01.2026 02:28 -0,2 °C -1,1 °C -3,9 °C 96 % 1003,8 hPa 0,0 l/m² 0 min 0 min 0 W/m² 3,2 km/h (1 Bft) 95,45 %
27.01.2026 02:30 -0,2 °C -1,1 °C -3,9 °C 96 % 1003,7 hPa 0,0 l/m² 0 min 0 min 0 W/m² 0,0 km/h (0 Bft) 96,00 %
27.01.2026 02:32 -0,2 °C -1,1 °C -3,9 °C 96 % 1003,7 hPa 0,0 l/m² 0 min 0 min 0 W/m² 3,2 km/h (1 Bft) 92,86 %
27.01.2026 02:34 -0,2 °C -1,1 °C -3,9 °C 96 % 1003,6 hPa 0,0 l/m² 0 min 0 min 0 W/m² 3,2 km/h (1 Bft) 94,12 %
27.01.2026 02:36 -0,2 °C -1,1 °C -3,9 °C 96 % 1003,7 hPa 0,0 l/m² 0 min 0 min 0 W/m² 6,4 km/h (2 Bft) 95,35 %
27.01.2026 02:38 -0,2 °C -1,1 °C -3,9 °C 96 % 1003,7 hPa 0,0 l/m² 0 min 0 min 0 W/m² 3,2 km/h (1 Bft) 94,12 %
27.01.2026 02:40 -0,2 °C -1,1 °C -3,9 °C 96 % 1003,6 hPa 0,0 l/m² 0 min 0 min 0 W/m² 3,2 km/h (1 Bft) 100,00 %
27.01.2026 02:42 -0,2 °C -1,1 °C -3,9 °C 96 % 1003,7 hPa 0,0 l/m² 0 min 0 min 0 W/m² 3,2 km/h (1 Bft) 96,55 %
27.01.2026 02:44 -0,2 °C -1,1 °C -3,9 °C 96 % 1003,6 hPa 0,0 l/m² 0 min 0 min 0 W/m² 3,2 km/h (1 Bft) 97,92 %
27.01.2026 02:46 -0,2 °C -1,1 °C -3,9 °C 96 % 1003,6 hPa 0,0 l/m² 0 min 0 min 0 W/m² 0,0 km/h (0 Bft) 95,65 %
27.01.2026 02:48 -0,2 °C -1,1 °C -3,9 °C 96 % 1003,6 hPa 0,0 l/m² 0 min 0 min 0 W/m² 0,0 km/h (0 Bft) 56,52 %
27.01.2026 02:50 -0,2 °C -1,1 °C -3,9 °C 96 % 1003,6 hPa 0,0 l/m² 0 min 0 min 0 W/m² 3,2 km/h (1 Bft) 95,56 %
27.01.2026 02:52 -0,2 °C -1,1 °C -3,9 °C 96 % 1003,4 hPa 0,0 l/m² 0 min 0 min 0 W/m² 6,4 km/h (2 Bft) 97,78 %
27.01.2026 02:56 -0,2 °C -0,6 °C -3,9 °C 96 % 1003,5 hPa 0,0 l/m² 0 min 0 min 0 W/m² 3,2 km/h (1 Bft) 97,70 %
27.01.2026 02:58 -0,2 °C -0,6 °C -3,9 °C 96 % 1003,5 hPa 0,0 l/m² 0 min 0 min 0 W/m² 0,0 km/h (0 Bft) 96,43 %
27.01.2026 03:02 -0,2 °C -0,6 °C -3,9 °C 96 % 1003,3 hPa 0,0 l/m² 0 min 0 min 0 W/m² 3,2 km/h (1 Bft) 96,74 %
27.01.2026 03:04 -0,3 °C -0,6 °C -3,9 °C 96 % 1003,3 hPa 0,0 l/m² 0 min 0 min 0 W/m² 3,2 km/h (1 Bft) 98,08 %
27.01.2026 03:08 -0,3 °C -0,6 °C -3,9 °C 96 % 1003,3 hPa 0,0 l/m² 0 min 0 min 0 W/m² 3,2 km/h (1 Bft) 98,88 %
27.01.2026 03:10 -0,3 °C -0,6 °C -3,9 °C 96 % 1003,2 hPa 0,0 l/m² 0 min 0 min 0 W/m² 6,4 km/h (2 Bft) 100,00 %
27.01.2026 03:12 -0,2 °C -0,6 °C -3,9 °C 96 % 1003,2 hPa 0,0 l/m² 0 min 0 min 0 W/m² 6,4 km/h (2 Bft) 100,00 %
27.01.2026 03:14 -0,2 °C -0,6 °C -3,9 °C 96 % 1003,3 hPa 0,0 l/m² 0 min 0 min 0 W/m² 6,4 km/h (2 Bft) 100,00 %
27.01.2026 03:16 -0,2 °C -0,6 °C -3,9 °C 96 % 1003,2 hPa 0,0 l/m² 0 min 0 min 0 W/m² 6,4 km/h (2 Bft) 100,00 %
27.01.2026 03:18 -0,2 °C -0,6 °C -3,9 °C 96 % 1003,1 hPa 0,0 l/m² 0 min 0 min 0 W/m² 3,2 km/h (1 Bft) 100,00 %
27.01.2026 03:20 -0,2 °C -0,6 °C -3,9 °C 96 % 1003,1 hPa 0,0 l/m² 0 min 0 min 0 W/m² 3,2 km/h (1 Bft) 97,87 %
27.01.2026 03:22 -0,2 °C -0,6 °C -3,9 °C 96 % 1003,1 hPa 0,0 l/m² 0 min 0 min 0 W/m² 3,2 km/h (1 Bft) 100,00 %
27.01.2026 03:24 -0,2 °C -0,6 °C -3,9 °C 96 % 1003,0 hPa 0,0 l/m² 0 min 0 min 0 W/m² 3,2 km/h (1 Bft) 98,28 %
27.01.2026 03:26 -0,2 °C -0,6 °C -3,9 °C 96 % 1003,1 hPa 0,0 l/m² 0 min 0 min 0 W/m² 3,2 km/h (1 Bft) 100,00 %
27.01.2026 03:28 -0,2 °C -0,6 °C -3,9 °C 96 % 1003,0 hPa 0,0 l/m² 0 min 0 min 0 W/m² 3,2 km/h (1 Bft) 100,00 %
27.01.2026 03:30 -0,2 °C -0,6 °C -3,9 °C 96 % 1003,1 hPa 0,0 l/m² 0 min 0 min 0 W/m² 3,2 km/h (1 Bft) 98,18 %
27.01.2026 03:32 -0,2 °C -0,6 °C -3,9 °C 96 % 1003,1 hPa 0,0 l/m² 0 min 0 min 0 W/m² 3,2 km/h (1 Bft) 100,00 %
27.01.2026 03:34 -0,2 °C -0,6 °C -3,9 °C 96 % 1003,1 hPa 0,0 l/m² 0 min 0 min 0 W/m² 3,2 km/h (1 Bft) 98,25 %
27.01.2026 03:36 -0,2 °C -0,6 °C -3,9 °C 96 % 1003,0 hPa 0,0 l/m² 0 min 0 min 0 W/m² 6,4 km/h (2 Bft) 97,22 %
27.01.2026 03:38 -0,2 °C -0,6 °C -3,9 °C 96 % 1003,0 hPa 0,0 l/m² 0 min 0 min 0 W/m² 3,2 km/h (1 Bft) 96,61 %
27.01.2026 03:40 -0,2 °C -0,6 °C -3,9 °C 96 % 1003,0 hPa 0,0 l/m² 0 min 0 min 0 W/m² 3,2 km/h (1 Bft) 97,62 %
27.01.2026 03:42 -0,1 °C -0,6 °C -3,9 °C 96 % 1002,9 hPa 0,0 l/m² 0 min 0 min 0 W/m² 3,2 km/h (1 Bft) 92,16 %
27.01.2026 03:44 -0,1 °C -0,6 °C -3,9 °C 96 % 1002,8 hPa 0,0 l/m² 0 min 0 min 0 W/m² 3,2 km/h (1 Bft) 97,87 %
27.01.2026 03:46 -0,1 °C -0,6 °C -3,9 °C 96 % 1002,9 hPa 0,0 l/m² 0 min 0 min 0 W/m² 6,4 km/h (2 Bft) 97,78 %
27.01.2026 03:48 -0,1 °C -0,6 °C -3,9 °C 96 % 1002,9 hPa 0,0 l/m² 0 min 0 min 0 W/m² 0,0 km/h (0 Bft) 97,96 %
27.01.2026 03:50 -0,1 °C -0,6 °C -3,9 °C 96 % 1002,9 hPa 0,0 l/m² 0 min 0 min 0 W/m² 6,4 km/h (2 Bft) 97,87 %
27.01.2026 03:52 -0,1 °C -0,6 °C -3,9 °C 96 % 1002,9 hPa 0,0 l/m² 0 min 0 min 0 W/m² 3,2 km/h (1 Bft) 97,87 %
27.01.2026 03:54 -0,1 °C -0,6 °C -3,9 °C 96 % 1002,8 hPa 0,0 l/m² 0 min 0 min 0 W/m² 6,4 km/h (2 Bft) 97,14 %
27.01.2026 03:56 -0,1 °C -0,6 °C -3,9 °C 96 % 1002,9 hPa 0,0 l/m² 0 min 0 min 0 W/m² 3,2 km/h (1 Bft) 96,43 %
27.01.2026 03:58 -0,1 °C -0,6 °C -3,9 °C 96 % 1002,9 hPa 0,0 l/m² 0 min 0 min 0 W/m² 0,0 km/h (0 Bft) 96,08 %
27.01.2026 04:02 -0,1 °C -0,6 °C -3,9 °C 96 % 1002,9 hPa 0,0 l/m² 0 min 0 min 0 W/m² 3,2 km/h (1 Bft) 94,62 %
27.01.2026 04:06 -0,1 °C -0,6 °C -3,9 °C 96 % 1002,8 hPa 0,0 l/m² 0 min 0 min 0 W/m² 3,2 km/h (1 Bft) 95,35 %
27.01.2026 04:08 -0,1 °C -0,6 °C -3,9 °C 96 % 1002,9 hPa 0,0 l/m² 0 min 0 min 0 W/m² 3,2 km/h (1 Bft) 96,30 %
27.01.2026 04:10 -0,1 °C -0,6 °C -3,9 °C 96 % 1002,8 hPa 0,0 l/m² 0 min 0 min 0 W/m² 3,2 km/h (1 Bft) 96,42 %
27.01.2026 04:14 -0,1 °C -0,6 °C -3,9 °C 96 % 1002,9 hPa 0,0 l/m² 0 min 0 min 0 W/m² 3,2 km/h (1 Bft) 97,14 %
27.01.2026 04:16 -0,1 °C -0,6 °C -3,9 °C 96 % 1002,9 hPa 0,0 l/m² 0 min 0 min 0 W/m² 3,2 km/h (1 Bft) 96,43 %
27.01.2026 04:20 -0,1 °C -0,6 °C -3,9 °C 96 % 1002,8 hPa 0,0 l/m² 0 min 0 min 0 W/m² 3,2 km/h (1 Bft) 97,65 %
27.01.2026 04:22 -0,1 °C -0,6 °C -3,9 °C 96 % 1002,8 hPa 0,0 l/m² 0 min 0 min 0 W/m² 3,2 km/h (1 Bft) 98,15 %
27.01.2026 04:24 -0,1 °C -0,6 °C -3,9 °C 96 % 1002,7 hPa 0,0 l/m² 0 min 0 min 0 W/m² 3,2 km/h (1 Bft) 97,50 %
27.01.2026 04:26 -0,1 °C -0,6 °C -3,9 °C 96 % 1002,7 hPa 0,0 l/m² 0 min 0 min 0 W/m² 3,2 km/h (1 Bft) 98,18 %
27.01.2026 04:28 -0,1 °C -0,6 °C -3,9 °C 96 % 1002,7 hPa 0,0 l/m² 0 min 0 min 0 W/m² 3,2 km/h (1 Bft) 97,87 %
27.01.2026 04:30 -0,1 °C -0,6 °C -3,9 °C 96 % 1002,7 hPa 0,0 l/m² 0 min 0 min 0 W/m² 3,2 km/h (1 Bft) 100,00 %
27.01.2026 04:34 -0,1 °C -0,6 °C -3,9 °C 96 % 1002,8 hPa 0,0 l/m² 0 min 0 min 0 W/m² 6,4 km/h (2 Bft) 100,00 %
27.01.2026 04:38 -0,1 °C -0,6 °C -3,9 °C 96 % 1002,6 hPa 0,0 l/m² 0 min 0 min 0 W/m² 3,2 km/h (1 Bft) 98,94 %
27.01.2026 04:40 -0,1 °C -1,1 °C -3,9 °C 96 % 1002,6 hPa 0,0 l/m² 0 min 0 min 0 W/m² 0,0 km/h (0 Bft) 100,00 %
27.01.2026 04:42 -0,1 °C -1,1 °C -3,9 °C 96 % 1002,6 hPa 0,0 l/m² 0 min 0 min 0 W/m² 0,0 km/h (0 Bft) 100,00 %
27.01.2026 04:44 -0,1 °C -1,1 °C -3,9 °C 96 % 1002,5 hPa 0,0 l/m² 0 min 0 min 0 W/m² 3,2 km/h (1 Bft) 100,00 %
27.01.2026 04:46 -0,1 °C -1,1 °C -3,9 °C 96 % 1002,5 hPa 0,0 l/m² 0 min 0 min 0 W/m² 3,2 km/h (1 Bft) 100,00 %
27.01.2026 04:48 -0,1 °C -1,1 °C -3,9 °C 96 % 1002,4 hPa 0,0 l/m² 0 min 0 min 0 W/m² 3,2 km/h (1 Bft) 100,00 %
27.01.2026 04:50 -0,1 °C -1,1 °C -3,9 °C 96 % 1002,3 hPa 0,0 l/m² 0 min 0 min 0 W/m² 3,2 km/h (1 Bft) 100,00 %
27.01.2026 04:52 -0,1 °C -1,1 °C -3,9 °C 96 % 1002,3 hPa 0,0 l/m² 0 min 0 min 0 W/m² 3,2 km/h (1 Bft) 97,78 %
27.01.2026 04:56 -0,2 °C -1,1 °C -3,9 °C 96 % 1002,3 hPa 0,0 l/m² 0 min 0 min 0 W/m² 6,4 km/h (2 Bft) 98,04 %
27.01.2026 04:58 -0,1 °C -1,1 °C -3,9 °C 96 % 1002,3 hPa 0,0 l/m² 0 min 0 min 0 W/m² 3,2 km/h (1 Bft) 100,00 %
27.01.2026 05:00 -0,2 °C -1,1 °C -3,9 °C 96 % 1002,2 hPa 0,0 l/m² 0 min 0 min 0 W/m² 3,2 km/h (1 Bft) 100,00 %
27.01.2026 05:02 -0,2 °C -1,1 °C -3,9 °C 96 % 1002,2 hPa 0,0 l/m² 0 min 0 min 0 W/m² 3,2 km/h (1 Bft) 100,00 %
27.01.2026 05:04 -0,2 °C -1,1 °C -3,9 °C 96 % 1002,2 hPa 0,0 l/m² 0 min 0 min 0 W/m² 3,2 km/h (1 Bft) 100,00 %
27.01.2026 05:08 -0,2 °C -1,1 °C -3,9 °C 96 % 1002,1 hPa 0,0 l/m² 0 min 0 min 0 W/m² 3,2 km/h (1 Bft) 98,92 %
27.01.2026 05:10 -0,2 °C -1,1 °C -3,9 °C 96 % 1002,1 hPa 0,0 l/m² 0 min 0 min 0 W/m² 6,4 km/h (2 Bft) 100,00 %
27.01.2026 05:12 -0,2 °C -1,1 °C -3,9 °C 96 % 1002,1 hPa 0,0 l/m² 0 min 0 min 0 W/m² 3,2 km/h (1 Bft) 100,00 %
27.01.2026 05:14 -0,3 °C -1,1 °C -3,9 °C 96 % 1002,1 hPa 0,0 l/m² 0 min 0 min 0 W/m² 3,2 km/h (1 Bft) 100,00 %
27.01.2026 05:16 -0,3 °C -1,1 °C -3,9 °C 96 % 1002,2 hPa 0,0 l/m² 0 min 0 min 0 W/m² 3,2 km/h (1 Bft) 100,00 %
27.01.2026 05:18 -0,3 °C -1,1 °C -3,9 °C 96 % 1002,2 hPa 0,0 l/m² 0 min 0 min 0 W/m² 0,0 km/h (0 Bft) 100,00 %
27.01.2026 05:20 -0,3 °C -1,1 °C -3,9 °C 96 % 1002,1 hPa 0,0 l/m² 0 min 0 min 0 W/m² 0,0 km/h (0 Bft) 97,83 %
27.01.2026 05:22 -0,3 °C -1,1 °C -3,9 °C 96 % 1002,0 hPa 0,0 l/m² 0 min 0 min 0 W/m² 0,0 km/h (0 Bft) 97,92 %
27.01.2026 05:24 -0,3 °C -1,1 °C -3,9 °C 96 % 1002,1 hPa 0,0 l/m² 0 min 0 min 0 W/m² 3,2 km/h (1 Bft) 97,78 %
27.01.2026 05:26 -0,3 °C -1,1 °C -3,9 °C 96 % 1002,1 hPa 0,0 l/m² 0 min 0 min 0 W/m² 3,2 km/h (1 Bft) 97,83 %
27.01.2026 05:28 -0,3 °C -1,1 °C -3,9 °C 96 % 1002,0 hPa 0,0 l/m² 0 min 0 min 0 W/m² 3,2 km/h (1 Bft) 95,74 %
27.01.2026 05:30 -0,3 °C -1,1 °C -3,9 °C 96 % 1001,9 hPa 0,0 l/m² 0 min 0 min 0 W/m² 6,4 km/h (2 Bft) 97,78 %
27.01.2026 05:32 -0,3 °C -1,1 °C -3,9 °C 96 % 1001,9 hPa 0,0 l/m² 0 min 0 min 0 W/m² 3,2 km/h (1 Bft) 93,62 %
27.01.2026 05:34 -0,3 °C -1,1 °C -3,9 °C 96 % 1002,0 hPa 0,0 l/m² 0 min 0 min 0 W/m² 3,2 km/h (1 Bft) 93,75 %
27.01.2026 05:36 -0,3 °C -1,1 °C -3,9 °C 96 % 1001,9 hPa 0,0 l/m² 0 min 0 min 0 W/m² 6,4 km/h (2 Bft) 96,43 %
27.01.2026 05:38 -0,3 °C -1,1 °C -3,9 °C 96 % 1001,8 hPa 0,0 l/m² 0 min 0 min 0 W/m² 6,4 km/h (2 Bft) 95,12 %
27.01.2026 05:40 -0,3 °C -1,1 °C -3,9 °C 96 % 1001,7 hPa 0,0 l/m² 0 min 0 min 0 W/m² 6,4 km/h (2 Bft) 91,49 %
27.01.2026 05:42 -0,3 °C -1,1 °C -3,9 °C 96 % 1001,6 hPa 0,0 l/m² 0 min 0 min 0 W/m² 3,2 km/h (1 Bft) 95,65 %
27.01.2026 05:44 -0,3 °C -1,1 °C -3,9 °C 96 % 1001,6 hPa 0,0 l/m² 0 min 0 min 0 W/m² 3,2 km/h (1 Bft) 97,87 %
27.01.2026 05:46 -0,3 °C -1,1 °C -3,9 °C 96 % 1001,5 hPa 0,0 l/m² 0 min 0 min 0 W/m² 3,2 km/h (1 Bft) 95,56 %
27.01.2026 05:48 -0,4 °C -1,1 °C -4,4 °C 96 % 1001,5 hPa 0,0 l/m² 0 min 0 min 0 W/m² 6,4 km/h (2 Bft) 91,67 %
27.01.2026 05:50 -0,4 °C -1,7 °C -4,4 °C 96 % 1001,4 hPa 0,0 l/m² 0 min 0 min 0 W/m² 6,4 km/h (2 Bft) 91,30 %
27.01.2026 05:52 -0,4 °C -1,7 °C -4,4 °C 96 % 1001,4 hPa 0,0 l/m² 0 min 0 min 0 W/m² 3,2 km/h (1 Bft) 91,49 %
27.01.2026 05:54 -0,4 °C -1,7 °C -4,4 °C 96 % 1001,4 hPa 0,0 l/m² 0 min 0 min 0 W/m² 6,4 km/h (2 Bft) 93,62 %
27.01.2026 05:56 -0,4 °C -1,7 °C -4,4 °C 96 % 1001,3 hPa 0,0 l/m² 0 min 0 min 0 W/m² 3,2 km/h (1 Bft) 93,48 %
27.01.2026 05:58 -0,4 °C -1,7 °C -4,4 °C 96 % 1001,3 hPa 0,0 l/m² 0 min 0 min 0 W/m² 6,4 km/h (2 Bft) 93,62 %
27.01.2026 06:00 -0,4 °C -1,7 °C -4,4 °C 96 % 1001,4 hPa 0,0 l/m² 0 min 0 min 0 W/m² 3,2 km/h (1 Bft) 91,30 %
27.01.2026 06:02 -0,4 °C -1,7 °C -4,4 °C 96 % 1001,4 hPa 0,0 l/m² 0 min 0 min 0 W/m² 0,0 km/h (0 Bft) 91,49 %
27.01.2026 06:04 -0,5 °C -1,7 °C -4,4 °C 96 % 1001,4 hPa 0,0 l/m² 0 min 0 min 0 W/m² 3,2 km/h (1 Bft) 93,62 %
27.01.2026 06:08 -0,5 °C -1,7 °C -4,4 °C 96 % 1001,3 hPa 0,0 l/m² 0 min 0 min 0 W/m² 3,2 km/h (1 Bft) 92,71 %
27.01.2026 06:12 -0,6 °C -1,7 °C -4,4 °C 96 % 1001,2 hPa 0,0 l/m² 0 min 0 min 0 W/m² 3,2 km/h (1 Bft) 97,14 %
27.01.2026 06:16 -0,6 °C -1,7 °C -4,4 °C 96 % 1001,2 hPa 0,0 l/m² 0 min 0 min 0 W/m² 3,2 km/h (1 Bft) 95,24 %
27.01.2026 06:18 -0,6 °C -1,7 °C -5,0 °C 96 % 1001,1 hPa 0,0 l/m² 0 min 0 min 0 W/m² 3,2 km/h (1 Bft) 97,87 %
27.01.2026 06:20 -0,7 °C -2,2 °C -5,0 °C 96 % 1001,1 hPa 0,0 l/m² 0 min 0 min 0 W/m² 0,0 km/h (0 Bft) 97,87 %
27.01.2026 06:22 -0,7 °C -2,2 °C -5,0 °C 96 % 1001,0 hPa 0,0 l/m² 0 min 0 min 0 W/m² 0,0 km/h (0 Bft) 95,24 %
27.01.2026 06:24 -0,7 °C -2,2 °C -5,0 °C 96 % 1001,0 hPa 0,0 l/m² 0 min 0 min 0 W/m² 0,0 km/h (0 Bft) 97,96 %
27.01.2026 06:26 -0,7 °C -2,2 °C -5,0 °C 96 % 1000,9 hPa 0,0 l/m² 0 min 0 min 0 W/m² 0,0 km/h (0 Bft) 98,00 %
27.01.2026 06:28 -0,8 °C -2,2 °C -5,0 °C 96 % 1000,9 hPa 0,0 l/m² 0 min 0 min 0 W/m² 0,0 km/h (0 Bft) 95,65 %
27.01.2026 06:30 -0,8 °C -2,2 °C -5,0 °C 96 % 1000,9 hPa 0,0 l/m² 0 min 0 min 0 W/m² 0,0 km/h (0 Bft) 100,00 %
27.01.2026 06:32 -0,8 °C -2,2 °C -5,0 °C 96 % 1000,9 hPa 0,0 l/m² 0 min 0 min 0 W/m² 0,0 km/h (0 Bft) 100,00 %
27.01.2026 06:34 -0,8 °C -2,2 °C -5,0 °C 96 % 1000,9 hPa 0,0 l/m² 0 min 0 min 0 W/m² 0,0 km/h (0 Bft) 100,00 %
27.01.2026 06:36 -0,8 °C -2,2 °C -5,0 °C 96 % 1000,9 hPa 0,0 l/m² 0 min 0 min 0 W/m² 0,0 km/h (0 Bft) 100,00 %
27.01.2026 06:38 -0,9 °C -2,2 °C -5,0 °C 96 % 1000,9 hPa 0,0 l/m² 0 min 0 min 0 W/m² 0,0 km/h (0 Bft) 100,00 %
27.01.2026 06:40 -0,9 °C -2,2 °C -5,0 °C 96 % 1000,9 hPa 0,0 l/m² 0 min 0 min 0 W/m² 0,0 km/h (0 Bft) 100,00 %
27.01.2026 06:42 -0,9 °C -2,2 °C -5,0 °C 96 % 1000,9 hPa 0,0 l/m² 0 min 0 min 0 W/m² 0,0 km/h (0 Bft) 100,00 %
27.01.2026 06:44 -0,9 °C -2,2 °C -5,0 °C 96 % 1000,9 hPa 0,0 l/m² 0 min 0 min 0 W/m² 0,0 km/h (0 Bft) 100,00 %
27.01.2026 06:46 -0,9 °C -2,2 °C -5,0 °C 96 % 1000,8 hPa 0,0 l/m² 0 min 0 min 0 W/m² 0,0 km/h (0 Bft) 100,00 %
27.01.2026 06:48 -0,9 °C -2,2 °C -5,0 °C 96 % 1000,8 hPa 0,0 l/m² 0 min 0 min 0 W/m² 0,0 km/h (0 Bft) 100,00 %
27.01.2026 06:50 -0,9 °C -1,7 °C -5,0 °C 96 % 1000,7 hPa 0,0 l/m² 0 min 0 min 0 W/m² 0,0 km/h (0 Bft) 100,00 %
27.01.2026 06:52 -1,0 °C -1,7 °C -5,0 °C 96 % 1000,7 hPa 0,0 l/m² 0 min 0 min 0 W/m² 0,0 km/h (0 Bft) 95,74 %
27.01.2026 06:54 -0,9 °C -1,7 °C -5,0 °C 96 % 1000,6 hPa 0,0 l/m² 0 min 0 min 0 W/m² 0,0 km/h (0 Bft) 100,00 %
27.01.2026 06:56 -1,0 °C -1,7 °C -5,0 °C 96 % 1000,6 hPa 0,0 l/m² 0 min 0 min 0 W/m² 0,0 km/h (0 Bft) 100,00 %
27.01.2026 06:58 -1,0 °C -1,7 °C -5,0 °C 96 % 1000,6 hPa 0,0 l/m² 0 min 0 min 0 W/m² 0,0 km/h (0 Bft) 100,00 %
27.01.2026 07:00 -1,0 °C -1,7 °C -4,4 °C 96 % 1000,6 hPa 0,0 l/m² 0 min 0 min 0 W/m² 3,2 km/h (1 Bft) 100,00 %
27.01.2026 07:04 -1,0 °C -1,7 °C -4,4 °C 96 % 1000,5 hPa 0,0 l/m² 0 min 0 min 0 W/m² 0,0 km/h (0 Bft) 98,96 %
27.01.2026 07:07 -1,0 °C -1,7 °C -4,4 °C 96 % 1000,4 hPa 0,0 l/m² 0 min 0 min 0 W/m² 3,2 km/h (1 Bft) 98,57 %
27.01.2026 07:08 -1,0 °C -1,7 °C -4,4 °C 96 % 1000,4 hPa 0,0 l/m² 0 min 0 min 0 W/m² 3,2 km/h (1 Bft) 97,09 %
27.01.2026 07:12 -0,9 °C -1,7 °C -4,4 °C 96 % 1000,4 hPa 0,0 l/m² 0 min 0 min 0 W/m² 0,0 km/h (0 Bft) 100,00 %
27.01.2026 07:14 -0,9 °C -1,7 °C -4,4 °C 96 % 1000,3 hPa 0,0 l/m² 0 min 0 min 0 W/m² 3,2 km/h (1 Bft) 100,00 %
27.01.2026 07:16 -0,9 °C -1,7 °C -4,4 °C 96 % 1000,3 hPa 0,0 l/m² 0 min 0 min 0 W/m² 0,0 km/h (0 Bft) 100,00 %
27.01.2026 07:18 -0,9 °C -1,7 °C -4,4 °C 96 % 1000,3 hPa 0,0 l/m² 0 min 0 min 0 W/m² 0,0 km/h (0 Bft) 100,00 %
27.01.2026 07:20 -0,9 °C -1,7 °C -4,4 °C 96 % 1000,3 hPa 0,0 l/m² 0 min 0 min 0 W/m² 0,0 km/h (0 Bft) 100,00 %
27.01.2026 07:22 -0,9 °C -1,1 °C -4,4 °C 96 % 1000,3 hPa 0,0 l/m² 0 min 0 min 0 W/m² 6,4 km/h (2 Bft) 97,92 %
27.01.2026 07:24 -0,9 °C -1,1 °C -4,4 °C 96 % 1000,3 hPa 0,0 l/m² 0 min 0 min 0 W/m² 3,2 km/h (1 Bft) 100,00 %
27.01.2026 07:26 -0,8 °C -1,1 °C -4,4 °C 96 % 1000,4 hPa 0,0 l/m² 0 min 0 min 0 W/m² 3,2 km/h (1 Bft) 100,00 %
27.01.2026 07:28 -0,8 °C -1,1 °C -4,4 °C 96 % 1000,4 hPa 0,0 l/m² 0 min 0 min 0 W/m² 0,0 km/h (0 Bft) 100,00 %
27.01.2026 07:30 -0,8 °C -1,1 °C -4,4 °C 96 % 1000,3 hPa 0,0 l/m² 0 min 0 min 0 W/m² 3,2 km/h (1 Bft) 100,00 %
27.01.2026 07:32 -0,8 °C -1,1 °C -3,9 °C 96 % 1000,3 hPa 0,0 l/m² 0 min 0 min 0 W/m² 0,0 km/h (0 Bft) 95,74 %
27.01.2026 07:34 -0,7 °C -1,1 °C -3,9 °C 97 % 1000,3 hPa 0,0 l/m² 0 min 0 min 0 W/m² 0,0 km/h (0 Bft) 93,22 %
27.01.2026 07:36 -0,7 °C -1,1 °C -3,9 °C 97 % 1000,2 hPa 0,0 l/m² 0 min 0 min 0 W/m² 0,0 km/h (0 Bft) 97,87 %
27.01.2026 07:38 -0,7 °C -1,1 °C -3,9 °C 97 % 1000,2 hPa 0,0 l/m² 0 min 0 min 0 W/m² 0,0 km/h (0 Bft) 97,83 %
27.01.2026 07:40 -0,7 °C -1,1 °C -3,9 °C 97 % 1000,2 hPa 0,0 l/m² 0 min 0 min 0 W/m² 0,0 km/h (0 Bft) 97,87 %
27.01.2026 07:42 -0,7 °C -1,1 °C -3,9 °C 97 % 1000,2 hPa 0,0 l/m² 0 min 0 min 0 W/m² 0,0 km/h (0 Bft) 95,65 %
27.01.2026 07:44 -0,7 °C -1,1 °C -3,9 °C 97 % 1000,1 hPa 0,0 l/m² 0 min 0 min 0 W/m² 0,0 km/h (0 Bft) 97,73 %
27.01.2026 07:46 -0,6 °C -1,1 °C -3,9 °C 96 % 1000,1 hPa 0,0 l/m² 0 min 0 min 0 W/m² 0,0 km/h (0 Bft) 97,44 %
27.01.2026 07:48 -0,6 °C -1,1 °C -3,9 °C 96 % 1000,2 hPa 0,0 l/m² 0 min 0 min 0 W/m² 0,0 km/h (0 Bft) 97,87 %
27.01.2026 07:50 -0,6 °C -1,1 °C -3,9 °C 96 % 1000,1 hPa 0,0 l/m² 0 min 0 min 0 W/m² 0,0 km/h (0 Bft) 98,28 %
27.01.2026 07:52 -0,6 °C -1,1 °C -3,9 °C 96 % 1000,1 hPa 0,0 l/m² 0 min 0 min 0 W/m² 0,0 km/h (0 Bft) 97,78 %
27.01.2026 07:54 -0,5 °C -1,1 °C -3,9 °C 97 % 1000,1 hPa 0,0 l/m² 0 min 0 min 0 W/m² 3,2 km/h (1 Bft) 97,83 %
27.01.2026 07:56 -0,4 °C -1,1 °C -3,9 °C 97 % 1000,1 hPa 0,0 l/m² 0 min 0 min 0 W/m² 3,2 km/h (1 Bft) 95,56 %
27.01.2026 07:58 -0,4 °C -1,1 °C -3,9 °C 97 % 1000,0 hPa 0,0 l/m² 0 min 0 min 0 W/m² 3,2 km/h (1 Bft) 97,50 %
27.01.2026 08:00 -0,4 °C -1,1 °C -3,9 °C 97 % 1000,0 hPa 0,0 l/m² 0 min 0 min 0 W/m² 0,0 km/h (0 Bft) 97,87 %
27.01.2026 08:02 -0,4 °C -1,1 °C -3,9 °C 97 % 999,9 hPa 0,0 l/m² 0 min 0 min 0 W/m² 3,2 km/h (1 Bft) 96,23 %
27.01.2026 08:04 -0,4 °C -1,1 °C -3,9 °C 97 % 999,9 hPa 0,0 l/m² 0 min 0 min 0 W/m² 3,2 km/h (1 Bft) 95,24 %
27.01.2026 08:08 -0,4 °C -1,1 °C -4,4 °C 97 % 1000,0 hPa 0,0 l/m² 0 min 0 min 1 W/m² 0,0 km/h (0 Bft) 98,08 %
27.01.2026 08:10 -0,4 °C -1,1 °C -4,4 °C 97 % 1000,0 hPa 0,0 l/m² 0 min 0 min 5 W/m² 0,0 km/h (0 Bft) 95,65 %
27.01.2026 08:12 -0,4 °C -1,1 °C -4,4 °C 97 % 1000,0 hPa 0,0 l/m² 0 min 0 min 5 W/m² 0,0 km/h (0 Bft) 100,00 %
27.01.2026 08:14 -0,4 °C -1,1 °C -3,9 °C 97 % 1000,0 hPa 0,0 l/m² 0 min 0 min 5 W/m² 0,0 km/h (0 Bft) 97,87 %
27.01.2026 08:16 -0,4 °C -1,1 °C -3,9 °C 97 % 1000,0 hPa 0,0 l/m² 0 min 0 min 5 W/m² 0,0 km/h (0 Bft) 92,86 %
27.01.2026 08:18 -0,4 °C -1,1 °C -3,9 °C 97 % 999,9 hPa 0,0 l/m² 0 min 0 min 7 W/m² 0,0 km/h (0 Bft) 94,59 %
27.01.2026 08:20 -0,4 °C -1,1 °C -3,9 °C 97 % 1000,0 hPa 0,0 l/m² 0 min 0 min 3 W/m² 0,0 km/h (0 Bft) 95,74 %
27.01.2026 08:22 -0,4 °C -1,1 °C -3,9 °C 97 % 1000,0 hPa 0,0 l/m² 0 min 0 min 0 W/m² 0,0 km/h (0 Bft) 97,87 %
27.01.2026 08:24 -0,4 °C -1,1 °C -3,9 °C 97 % 999,9 hPa 0,0 l/m² 0 min 0 min 0 W/m² 0,0 km/h (0 Bft) 95,74 %
27.01.2026 08:26 -0,4 °C -1,1 °C -3,9 °C 97 % 999,9 hPa 0,0 l/m² 0 min 0 min 5 W/m² 0,0 km/h (0 Bft) 95,65 %
27.01.2026 08:28 -0,4 °C -1,1 °C -3,9 °C 97 % 999,8 hPa 0,0 l/m² 0 min 0 min 5 W/m² 0,0 km/h (0 Bft) 95,74 %
27.01.2026 08:30 -0,4 °C -1,1 °C -3,9 °C 97 % 999,8 hPa 0,0 l/m² 0 min 0 min 5 W/m² 0,0 km/h (0 Bft) 91,49 %
27.01.2026 08:32 -0,4 °C -1,1 °C -3,9 °C 97 % 999,7 hPa 0,0 l/m² 0 min 0 min 6 W/m² 3,2 km/h (1 Bft) 93,62 %
27.01.2026 08:34 -0,4 °C -1,1 °C -3,9 °C 97 % 999,7 hPa 0,0 l/m² 0 min 0 min 7 W/m² 0,0 km/h (0 Bft) 95,74 %
27.01.2026 08:36 -0,4 °C -1,1 °C -3,9 °C 97 % 999,7 hPa 0,0 l/m² 0 min 0 min 7 W/m² 3,2 km/h (1 Bft) 93,62 %
27.01.2026 08:38 -0,4 °C -1,1 °C -3,9 °C 97 % 999,7 hPa 0,0 l/m² 0 min 0 min 9 W/m² 3,2 km/h (1 Bft) 95,65 %
27.01.2026 08:40 -0,4 °C -1,1 °C -3,9 °C 97 % 999,7 hPa 0,0 l/m² 0 min 0 min 10 W/m² 6,4 km/h (2 Bft) 96,43 %
27.01.2026 08:42 -0,4 °C -1,1 °C -3,9 °C 97 % 999,6 hPa 0,0 l/m² 0 min 0 min 11 W/m² 3,2 km/h (1 Bft) 87,50 %
27.01.2026 08:44 -0,4 °C -1,1 °C -3,9 °C 97 % 999,5 hPa 0,0 l/m² 0 min 0 min 12 W/m² 3,2 km/h (1 Bft) 97,83 %
27.01.2026 08:46 -0,4 °C -1,1 °C -3,9 °C 97 % 999,6 hPa 0,0 l/m² 0 min 0 min 13 W/m² 3,2 km/h (1 Bft) 97,92 %
27.01.2026 08:48 -0,4 °C -1,1 °C -3,9 °C 97 % 999,6 hPa 0,0 l/m² 0 min 0 min 14 W/m² 3,2 km/h (1 Bft) 94,59 %
27.01.2026 08:50 -0,4 °C -1,1 °C -3,9 °C 97 % 999,6 hPa 0,0 l/m² 0 min 0 min 14 W/m² 0,0 km/h (0 Bft) 97,83 %
27.01.2026 08:52 -0,4 °C -1,1 °C -3,9 °C 97 % 999,5 hPa 0,0 l/m² 0 min 0 min 16 W/m² 0,0 km/h (0 Bft) 95,74 %
27.01.2026 08:54 -0,4 °C -1,1 °C -3,9 °C 97 % 999,5 hPa 0,0 l/m² 0 min 0 min 18 W/m² 3,2 km/h (1 Bft) 96,55 %
27.01.2026 08:56 -0,3 °C -1,1 °C -3,9 °C 97 % 999,5 hPa 0,0 l/m² 0 min 0 min 19 W/m² 0,0 km/h (0 Bft) 95,74 %
27.01.2026 08:58 -0,3 °C -1,1 °C -3,9 °C 97 % 999,5 hPa 0,0 l/m² 0 min 0 min 19 W/m² 3,2 km/h (1 Bft) 94,44 %
27.01.2026 09:00 -0,3 °C -1,1 °C -3,9 °C 97 % 999,5 hPa 0,0 l/m² 0 min 0 min 19 W/m² 0,0 km/h (0 Bft) 97,87 %
27.01.2026 09:02 -0,3 °C -1,1 °C -3,9 °C 97 % 999,4 hPa 0,0 l/m² 0 min 0 min 21 W/m² 0,0 km/h (0 Bft) 95,65 %
27.01.2026 09:04 -0,3 °C -0,6 °C -3,9 °C 97 % 999,5 hPa 0,0 l/m² 0 min 0 min 21 W/m² 0,0 km/h (0 Bft) 96,00 %
27.01.2026 09:08 -0,3 °C -0,6 °C -3,9 °C 97 % 999,4 hPa 0,0 l/m² 0 min 0 min 23 W/m² 0,0 km/h (0 Bft) 97,87 %
27.01.2026 09:10 -0,3 °C -0,6 °C -3,9 °C 97 % 999,3 hPa 0,0 l/m² 0 min 0 min 24 W/m² 0,0 km/h (0 Bft) 97,87 %
27.01.2026 09:12 -0,3 °C -0,6 °C -3,9 °C 97 % 999,3 hPa 0,0 l/m² 0 min 0 min 26 W/m² 0,0 km/h (0 Bft) 97,78 %
27.01.2026 09:14 -0,2 °C -0,6 °C -3,9 °C 97 % 999,2 hPa 0,0 l/m² 0 min 0 min 31 W/m² 0,0 km/h (0 Bft) 95,74 %
27.01.2026 09:16 -0,2 °C -0,6 °C -3,9 °C 97 % 999,3 hPa 0,0 l/m² 0 min 0 min 33 W/m² 0,0 km/h (0 Bft) 97,92 %
27.01.2026 09:18 -0,2 °C -0,6 °C -3,9 °C 97 % 999,2 hPa 0,0 l/m² 0 min 0 min 35 W/m² 0,0 km/h (0 Bft) 100,00 %
27.01.2026 09:20 -0,2 °C -0,6 °C -3,9 °C 97 % 999,3 hPa 0,0 l/m² 0 min 0 min 35 W/m² 0,0 km/h (0 Bft) 97,83 %
27.01.2026 09:22 -0,1 °C -0,6 °C -3,9 °C 97 % 999,2 hPa 0,0 l/m² 0 min 0 min 35 W/m² 0,0 km/h (0 Bft) 97,56 %
27.01.2026 09:24 -0,1 °C -0,6 °C -3,3 °C 97 % 999,1 hPa 0,0 l/m² 0 min 0 min 33 W/m² 9,7 km/h (2 Bft) 100,00 %
27.01.2026 09:26 -0,1 °C -0,6 °C -3,3 °C 97 % 999,1 hPa 0,0 l/m² 0 min 0 min 35 W/m² 6,4 km/h (2 Bft) 100,00 %
27.01.2026 09:28 -0,1 °C 0,0 °C -3,3 °C 97 % 999,0 hPa 0,0 l/m² 0 min 0 min 35 W/m² 3,2 km/h (1 Bft) 97,87 %
27.01.2026 09:30 0,0 °C 0,0 °C -3,3 °C 97 % 999,0 hPa 0,0 l/m² 0 min 0 min 37 W/m² 6,4 km/h (2 Bft) 97,87 %
27.01.2026 09:32 0,1 °C 0,0 °C -3,3 °C 97 % 999,0 hPa 0,0 l/m² 0 min 0 min 37 W/m² 6,4 km/h (2 Bft) 97,87 %
27.01.2026 09:34 0,1 °C 0,0 °C -3,3 °C 97 % 999,0 hPa 0,0 l/m² 0 min 0 min 35 W/m² 12,9 km/h (3 Bft) 97,87 %
27.01.2026 09:36 0,1 °C 0,0 °C -3,3 °C 97 % 999,0 hPa 0,0 l/m² 0 min 0 min 35 W/m² 3,2 km/h (1 Bft) 96,23 %
27.01.2026 09:38 0,2 °C 0,0 °C -3,3 °C 97 % 999,0 hPa 0,0 l/m² 0 min 0 min 37 W/m² 3,2 km/h (1 Bft) 97,92 %
27.01.2026 09:40 0,2 °C 0,0 °C -3,3 °C 97 % 998,9 hPa 0,0 l/m² 0 min 0 min 39 W/m² 6,4 km/h (2 Bft) 97,37 %
27.01.2026 09:42 0,2 °C 0,0 °C -3,3 °C 97 % 998,9 hPa 0,0 l/m² 0 min 0 min 43 W/m² 6,4 km/h (2 Bft) 97,92 %
27.01.2026 09:44 0,2 °C 0,0 °C -3,3 °C 97 % 998,9 hPa 0,0 l/m² 0 min 0 min 46 W/m² 6,4 km/h (2 Bft) 97,87 %
27.01.2026 09:46 0,3 °C 0,0 °C -3,3 °C 97 % 998,9 hPa 0,0 l/m² 0 min 0 min 51 W/m² 3,2 km/h (1 Bft) 93,48 %
27.01.2026 09:48 0,3 °C 0,6 °C -2,8 °C 97 % 998,9 hPa 0,0 l/m² 0 min 0 min 54 W/m² 3,2 km/h (1 Bft) 97,87 %
27.01.2026 09:50 0,3 °C 0,6 °C -2,8 °C 97 % 998,8 hPa 0,0 l/m² 0 min 0 min 54 W/m² 3,2 km/h (1 Bft) 96,43 %
27.01.2026 09:52 0,3 °C 0,6 °C -2,8 °C 97 % 998,8 hPa 0,0 l/m² 0 min 0 min 54 W/m² 3,2 km/h (1 Bft) 94,59 %
27.01.2026 09:54 0,4 °C 0,6 °C -2,8 °C 97 % 998,8 hPa 0,0 l/m² 0 min 0 min 56 W/m² 6,4 km/h (2 Bft) 97,92 %
27.01.2026 09:56 0,4 °C 0,6 °C -2,8 °C 97 % 998,8 hPa 0,0 l/m² 0 min 0 min 57 W/m² 6,4 km/h (2 Bft) 96,30 %
27.01.2026 09:58 0,4 °C 0,6 °C -2,8 °C 97 % 998,8 hPa 0,0 l/m² 0 min 0 min 60 W/m² 3,2 km/h (1 Bft) 100,00 %
27.01.2026 10:00 0,4 °C 0,6 °C -2,8 °C 97 % 998,8 hPa 0,0 l/m² 0 min 0 min 62 W/m² 3,2 km/h (1 Bft) 100,00 %
27.01.2026 10:02 0,5 °C 0,6 °C -2,8 °C 97 % 998,7 hPa 0,0 l/m² 0 min 0 min 62 W/m² 6,4 km/h (2 Bft) 97,87 %
27.01.2026 10:04 0,6 °C 0,6 °C -2,8 °C 97 % 998,7 hPa 0,0 l/m² 0 min 0 min 60 W/m² 3,2 km/h (1 Bft) 100,00 %
27.01.2026 10:08 0,6 °C 0,6 °C -2,8 °C 97 % 998,7 hPa 0,0 l/m² 0 min 0 min 62 W/m² 6,4 km/h (2 Bft) 100,00 %
27.01.2026 10:10 0,6 °C 0,6 °C -2,8 °C 97 % 998,6 hPa 0,0 l/m² 0 min 0 min 63 W/m² 3,2 km/h (1 Bft) 98,04 %
27.01.2026 10:12 0,6 °C 1,1 °C -2,8 °C 97 % 998,6 hPa 0,0 l/m² 0 min 0 min 67 W/m² 6,4 km/h (2 Bft) 100,00 %
27.01.2026 10:14 0,6 °C 1,1 °C -2,8 °C 97 % 998,5 hPa 0,0 l/m² 0 min 0 min 69 W/m² 3,2 km/h (1 Bft) 95,24 %
27.01.2026 10:18 0,6 °C 1,1 °C -2,8 °C 97 % 998,4 hPa 0,0 l/m² 0 min 0 min 73 W/m² 6,4 km/h (2 Bft) 98,99 %
27.01.2026 10:20 0,6 °C 1,1 °C -2,8 °C 97 % 998,4 hPa 0,0 l/m² 0 min 0 min 77 W/m² 9,7 km/h (2 Bft) 100,00 %
27.01.2026 10:22 0,6 °C 1,1 °C -2,2 °C 97 % 998,4 hPa 0,0 l/m² 0 min 0 min 81 W/m² 6,4 km/h (2 Bft) 100,00 %
27.01.2026 10:24 0,7 °C 1,1 °C -2,2 °C 97 % 998,4 hPa 0,0 l/m² 0 min 0 min 84 W/m² 3,2 km/h (1 Bft) 97,87 %
27.01.2026 10:26 0,7 °C 1,7 °C -2,2 °C 97 % 998,3 hPa 0,0 l/m² 0 min 0 min 88 W/m² 3,2 km/h (1 Bft) 78,26 %
27.01.2026 10:28 0,8 °C 1,7 °C -2,2 °C 97 % 998,3 hPa 0,0 l/m² 0 min 0 min 91 W/m² 6,4 km/h (2 Bft) 78,26 %
27.01.2026 10:30 0,8 °C 1,7 °C -2,2 °C 97 % 998,2 hPa 0,0 l/m² 0 min 0 min 96 W/m² 3,2 km/h (1 Bft) 95,83 %
27.01.2026 10:32 0,8 °C 1,7 °C -2,2 °C 97 % 998,2 hPa 0,0 l/m² 0 min 0 min 91 W/m² 3,2 km/h (1 Bft) 95,92 %
27.01.2026 10:34 0,9 °C 1,7 °C -2,2 °C 97 % 998,2 hPa 0,0 l/m² 0 min 0 min 85 W/m² 3,2 km/h (1 Bft) 95,65 %
27.01.2026 10:36 0,9 °C 1,7 °C -2,2 °C 97 % 998,1 hPa 0,0 l/m² 0 min 0 min 84 W/m² 6,4 km/h (2 Bft) 95,74 %
27.01.2026 10:38 0,9 °C 1,7 °C -2,2 °C 97 % 998,1 hPa 0,0 l/m² 0 min 0 min 84 W/m² 3,2 km/h (1 Bft) 95,74 %
27.01.2026 10:40 0,9 °C 1,7 °C -2,2 °C 97 % 998,1 hPa 0,0 l/m² 0 min 0 min 85 W/m² 6,4 km/h (2 Bft) 95,45 %
27.01.2026 10:42 1,0 °C 1,7 °C -2,2 °C 97 % 998,0 hPa 0,0 l/m² 0 min 0 min 87 W/m² 0,0 km/h (0 Bft) 97,92 %
27.01.2026 10:44 1,0 °C 1,7 °C -2,2 °C 97 % 998,0 hPa 0,0 l/m² 0 min 0 min 90 W/m² 0,0 km/h (0 Bft) 97,96 %
27.01.2026 10:46 1,1 °C 1,7 °C -2,2 °C 97 % 998,0 hPa 0,0 l/m² 0 min 0 min 93 W/m² 3,2 km/h (1 Bft) 97,56 %
27.01.2026 10:48 1,1 °C 2,2 °C -1,7 °C 97 % 998,0 hPa 0,0 l/m² 0 min 0 min 91 W/m² 6,4 km/h (2 Bft) 96,08 %
27.01.2026 10:50 1,2 °C 2,2 °C -1,7 °C 97 % 998,0 hPa 0,0 l/m² 0 min 0 min 90 W/m² 12,9 km/h (3 Bft) 95,83 %
27.01.2026 10:52 1,3 °C 2,2 °C -1,7 °C 97 % 997,9 hPa 0,0 l/m² 0 min 0 min 91 W/m² 9,7 km/h (2 Bft) 97,87 %
27.01.2026 10:54 1,4 °C 2,2 °C -1,7 °C 97 % 997,8 hPa 0,0 l/m² 0 min 0 min 92 W/m² 6,4 km/h (2 Bft) 97,56 %
27.01.2026 10:56 1,4 °C 2,2 °C -1,7 °C 97 % 997,9 hPa 0,0 l/m² 0 min 0 min 93 W/m² 12,9 km/h (3 Bft) 98,11 %
27.01.2026 10:58 1,6 °C 2,2 °C -1,7 °C 97 % 997,8 hPa 0,0 l/m² 0 min 0 min 95 W/m² 6,4 km/h (2 Bft) 95,24 %
27.01.2026 11:00 1,6 °C 2,2 °C -1,1 °C 97 % 997,8 hPa 0,0 l/m² 0 min 0 min 95 W/m² 12,9 km/h (3 Bft) 96,08 %
27.01.2026 11:02 1,7 °C 2,2 °C -1,1 °C 97 % 997,8 hPa 0,0 l/m² 0 min 0 min 95 W/m² 16,1 km/h (3 Bft) 95,74 %
27.01.2026 11:04 1,7 °C 2,2 °C -1,1 °C 97 % 997,8 hPa 0,0 l/m² 0 min 0 min 95 W/m² 12,9 km/h (3 Bft) 97,62 %
27.01.2026 11:08 1,8 °C 2,2 °C -1,1 °C 97 % 997,8 hPa 0,0 l/m² 0 min 0 min 94 W/m² 16,1 km/h (3 Bft) 97,94 %
27.01.2026 11:10 1,8 °C 2,8 °C -1,1 °C 97 % 997,8 hPa 0,0 l/m² 0 min 0 min 91 W/m² 12,9 km/h (3 Bft) 97,92 %
27.01.2026 11:12 1,9 °C 2,8 °C -1,1 °C 97 % 997,7 hPa 0,0 l/m² 0 min 0 min 90 W/m² 12,9 km/h (3 Bft) 97,92 %
27.01.2026 11:14 1,9 °C 2,8 °C -1,1 °C 97 % 997,7 hPa 0,0 l/m² 0 min 0 min 90 W/m² 19,3 km/h (3 Bft) 95,74 %
27.01.2026 11:16 2,0 °C 2,8 °C -1,1 °C 97 % 997,6 hPa 0,0 l/m² 0 min 0 min 88 W/m² 6,4 km/h (2 Bft) 94,29 %
27.01.2026 11:18 2,1 °C 2,8 °C -1,1 °C 97 % 997,7 hPa 0,0 l/m² 0 min 0 min 87 W/m² 12,9 km/h (3 Bft) 96,23 %
27.01.2026 11:20 2,1 °C 2,8 °C -1,1 °C 97 % 997,6 hPa 0,0 l/m² 0 min 0 min 84 W/m² 19,3 km/h (3 Bft) 96,00 %
27.01.2026 11:22 2,2 °C 2,8 °C -1,1 °C 97 % 997,6 hPa 0,0 l/m² 0 min 0 min 83 W/m² 16,1 km/h (3 Bft) 97,73 %
27.01.2026 11:24 2,2 °C 2,8 °C -1,1 °C 97 % 997,6 hPa 0,0 l/m² 0 min 0 min 81 W/m² 12,9 km/h (3 Bft) 96,15 %
27.01.2026 11:26 2,3 °C 2,8 °C -1,1 °C 97 % 997,5 hPa 0,0 l/m² 0 min 0 min 81 W/m² 12,9 km/h (3 Bft) 95,74 %
27.01.2026 11:28 2,3 °C 2,8 °C -0,6 °C 97 % 997,4 hPa 0,0 l/m² 0 min 0 min 81 W/m² 16,1 km/h (3 Bft) 95,35 %
27.01.2026 11:30 2,4 °C 2,8 °C -0,6 °C 97 % 997,4 hPa 0,0 l/m² 0 min 0 min 81 W/m² 12,9 km/h (3 Bft) 95,83 %
27.01.2026 11:32 2,4 °C 2,8 °C -0,6 °C 96 % 997,4 hPa 0,0 l/m² 0 min 0 min 83 W/m² 12,9 km/h (3 Bft) 93,88 %
27.01.2026 11:34 2,4 °C 2,8 °C -0,6 °C 96 % 997,4 hPa 0,0 l/m² 0 min 0 min 83 W/m² 12,9 km/h (3 Bft) 95,74 %
27.01.2026 11:36 2,5 °C 2,8 °C -0,6 °C 96 % 997,4 hPa 0,0 l/m² 0 min 0 min 83 W/m² 19,3 km/h (3 Bft) 94,29 %
27.01.2026 11:38 2,6 °C 2,8 °C -0,6 °C 96 % 997,3 hPa 0,0 l/m² 0 min 0 min 84 W/m² 19,3 km/h (3 Bft) 89,09 %
27.01.2026 11:40 2,6 °C 2,8 °C -0,6 °C 96 % 997,3 hPa 0,0 l/m² 0 min 0 min 84 W/m² 12,9 km/h (3 Bft) 95,83 %
27.01.2026 11:42 2,6 °C 2,8 °C -0,6 °C 96 % 997,2 hPa 0,0 l/m² 0 min 0 min 86 W/m² 12,9 km/h (3 Bft) 93,62 %
27.01.2026 11:44 2,7 °C 3,3 °C -0,6 °C 96 % 997,2 hPa 0,0 l/m² 0 min 0 min 88 W/m² 16,1 km/h (3 Bft) 95,92 %
27.01.2026 11:46 2,7 °C 3,3 °C -0,6 °C 95 % 997,1 hPa 0,0 l/m² 0 min 0 min 89 W/m² 19,3 km/h (3 Bft) 95,74 %
27.01.2026 11:48 2,8 °C 3,3 °C -0,6 °C 95 % 997,1 hPa 0,0 l/m² 0 min 0 min 91 W/m² 16,1 km/h (3 Bft) 94,29 %
27.01.2026 11:50 2,8 °C 3,3 °C -0,6 °C 95 % 997,0 hPa 0,0 l/m² 0 min 0 min 95 W/m² 12,9 km/h (3 Bft) 100,00 %
27.01.2026 11:56 3,1 °C 3,3 °C -0,6 °C 95 % 997,0 hPa 0,0 l/m² 0 min 0 min 103 W/m² 16,1 km/h (3 Bft) 95,45 %
27.01.2026 11:57 3,1 °C 3,3 °C -0,6 °C 94 % 996,9 hPa 0,0 l/m² 0 min 0 min 109 W/m² 16,1 km/h (3 Bft) 100,00 %
27.01.2026 11:58 3,1 °C 3,3 °C 0,0 °C 94 % 996,9 hPa 0,0 l/m² 0 min 0 min 109 W/m² 12,9 km/h (3 Bft) 96,30 %
27.01.2026 12:02 3,2 °C 3,3 °C 0,0 °C 94 % 996,9 hPa 0,0 l/m² 0 min 0 min 101 W/m² 12,9 km/h (3 Bft) 96,00 %
27.01.2026 12:04 3,2 °C 3,9 °C 0,0 °C 93 % 996,9 hPa 0,0 l/m² 0 min 0 min 96 W/m² 9,7 km/h (2 Bft) 100,00 %
27.01.2026 12:08 3,3 °C 3,9 °C 0,0 °C 93 % 996,8 hPa 0,0 l/m² 0 min 0 min 88 W/m² 16,1 km/h (3 Bft) 98,91 %
27.01.2026 12:10 3,4 °C 3,9 °C 0,0 °C 93 % 996,7 hPa 0,0 l/m² 0 min 0 min 84 W/m² 19,3 km/h (3 Bft) 100,00 %
27.01.2026 12:12 3,4 °C 3,9 °C 0,0 °C 93 % 996,7 hPa 0,0 l/m² 0 min 0 min 83 W/m² 9,7 km/h (2 Bft) 98,00 %
27.01.2026 12:16 3,6 °C 3,9 °C 0,0 °C 92 % 996,5 hPa 0,0 l/m² 0 min 0 min 81 W/m² 16,1 km/h (3 Bft) 97,56 %
27.01.2026 12:18 3,6 °C 3,9 °C 0,0 °C 92 % 996,5 hPa 0,0 l/m² 0 min 0 min 77 W/m² 16,1 km/h (3 Bft) 100,00 %
27.01.2026 12:20 3,6 °C 3,9 °C 0,0 °C 92 % 996,5 hPa 0,0 l/m² 0 min 0 min 76 W/m² 16,1 km/h (3 Bft) 100,00 %
27.01.2026 12:22 3,7 °C 3,9 °C 0,0 °C 91 % 996,5 hPa 0,0 l/m² 0 min 0 min 77 W/m² 16,1 km/h (3 Bft) 100,00 %
27.01.2026 12:24 3,7 °C 3,9 °C 0,0 °C 91 % 996,4 hPa 0,0 l/m² 0 min 0 min 80 W/m² 19,3 km/h (3 Bft) 100,00 %
27.01.2026 12:26 3,7 °C 3,9 °C 0,0 °C 91 % 996,3 hPa 0,0 l/m² 0 min 0 min 84 W/m² 12,9 km/h (3 Bft) 97,22 %
27.01.2026 12:28 3,8 °C 3,9 °C 0,0 °C 91 % 996,3 hPa 0,0 l/m² 0 min 0 min 87 W/m² 6,4 km/h (2 Bft) 100,00 %
27.01.2026 12:30 3,8 °C 3,9 °C 0,0 °C 90 % 996,3 hPa 0,0 l/m² 0 min 0 min 90 W/m² 12,9 km/h (3 Bft) 98,00 %
27.01.2026 12:32 3,8 °C 3,9 °C 0,0 °C 90 % 996,2 hPa 0,0 l/m² 0 min 0 min 90 W/m² 12,9 km/h (3 Bft) 92,86 %
27.01.2026 12:34 3,9 °C 3,9 °C 0,6 °C 90 % 996,1 hPa 0,0 l/m² 0 min 0 min 92 W/m² 16,1 km/h (3 Bft) 100,00 %
27.01.2026 12:36 3,9 °C 3,9 °C 0,6 °C 90 % 996,1 hPa 0,0 l/m² 0 min 0 min 97 W/m² 12,9 km/h (3 Bft) 100,00 %
27.01.2026 12:38 4,0 °C 4,4 °C 0,6 °C 90 % 996,0 hPa 0,0 l/m² 0 min 0 min 102 W/m² 16,1 km/h (3 Bft) 97,87 %
27.01.2026 12:40 4,1 °C 4,4 °C 0,6 °C 89 % 995,9 hPa 0,0 l/m² 0 min 0 min 100 W/m² 16,1 km/h (3 Bft) 100,00 %
27.01.2026 12:42 4,1 °C 4,4 °C 0,6 °C 89 % 995,9 hPa 0,0 l/m² 0 min 0 min 92 W/m² 25,7 km/h (4 Bft) 100,00 %
27.01.2026 12:44 4,1 °C 4,4 °C 0,6 °C 89 % 995,9 hPa 0,0 l/m² 0 min 0 min 81 W/m² 12,9 km/h (3 Bft) 100,00 %
27.01.2026 12:46 4,2 °C 4,4 °C 0,6 °C 89 % 995,8 hPa 0,0 l/m² 0 min 0 min 73 W/m² 16,1 km/h (3 Bft) 100,00 %
27.01.2026 12:48 4,2 °C 4,4 °C 0,6 °C 89 % 995,8 hPa 0,0 l/m² 0 min 0 min 69 W/m² 22,5 km/h (4 Bft) 100,00 %
27.01.2026 12:50 4,3 °C 4,4 °C 0,6 °C 88 % 995,7 hPa 0,0 l/m² 0 min 0 min 64 W/m² 19,3 km/h (3 Bft) 100,00 %
27.01.2026 12:52 4,3 °C 4,4 °C 0,6 °C 88 % 995,6 hPa 0,0 l/m² 0 min 0 min 60 W/m² 32,2 km/h (5 Bft) 100,00 %
27.01.2026 12:54 4,3 °C 4,4 °C 0,6 °C 88 % 995,5 hPa 0,0 l/m² 0 min 0 min 60 W/m² 19,3 km/h (3 Bft) 97,62 %
27.01.2026 12:56 4,4 °C 4,4 °C 0,6 °C 87 % 995,5 hPa 0,0 l/m² 0 min 0 min 62 W/m² 12,9 km/h (3 Bft) 100,00 %
27.01.2026 12:58 4,4 °C 4,4 °C 0,6 °C 87 % 995,4 hPa 0,0 l/m² 0 min 0 min 66 W/m² 16,1 km/h (3 Bft) 100,00 %
27.01.2026 13:00 4,4 °C 4,4 °C 0,6 °C 87 % 995,3 hPa 0,0 l/m² 0 min 0 min 73 W/m² 12,9 km/h (3 Bft) 100,00 %
27.01.2026 13:02 4,4 °C 4,4 °C 0,6 °C 87 % 995,3 hPa 0,0 l/m² 0 min 0 min 79 W/m² 19,3 km/h (3 Bft) 100,00 %
27.01.2026 13:04 4,5 °C 4,4 °C 0,6 °C 86 % 995,3 hPa 0,0 l/m² 0 min 0 min 82 W/m² 12,9 km/h (3 Bft) 100,00 %
27.01.2026 13:08 4,5 °C 4,4 °C 0,6 °C 86 % 995,2 hPa 0,0 l/m² 0 min 0 min 83 W/m² 19,3 km/h (3 Bft) 98,80 %
27.01.2026 13:10 4,6 °C 4,4 °C 0,6 °C 86 % 995,1 hPa 0,0 l/m² 0 min 0 min 84 W/m² 19,3 km/h (3 Bft) 95,45 %
27.01.2026 13:12 4,6 °C 4,4 °C 0,6 °C 86 % 995,1 hPa 0,0 l/m² 0 min 0 min 90 W/m² 16,1 km/h (3 Bft) 100,00 %
27.01.2026 13:14 4,6 °C 4,4 °C 0,6 °C 86 % 995,0 hPa 0,0 l/m² 0 min 0 min 96 W/m² 12,9 km/h (3 Bft) 100,00 %
27.01.2026 13:16 4,6 °C 4,4 °C 0,6 °C 86 % 995,0 hPa 0,0 l/m² 0 min 0 min 98 W/m² 16,1 km/h (3 Bft) 100,00 %
27.01.2026 13:18 4,6 °C 4,4 °C 0,6 °C 86 % 994,9 hPa 0,0 l/m² 0 min 0 min 97 W/m² 16,1 km/h (3 Bft) 98,15 %
27.01.2026 13:20 4,7 °C 4,4 °C 0,6 °C 85 % 994,8 hPa 0,0 l/m² 0 min 0 min 94 W/m² 16,1 km/h (3 Bft) 100,00 %
27.01.2026 13:22 4,7 °C 4,4 °C 0,6 °C 85 % 994,8 hPa 0,0 l/m² 0 min 0 min 92 W/m² 12,9 km/h (3 Bft) 97,14 %
27.01.2026 13:24 4,7 °C 4,4 °C 0,6 °C 85 % 994,8 hPa 0,0 l/m² 0 min 0 min 92 W/m² 12,9 km/h (3 Bft) 97,87 %
27.01.2026 13:26 4,7 °C 4,4 °C 0,6 °C 85 % 994,7 hPa 0,0 l/m² 0 min 0 min 96 W/m² 19,3 km/h (3 Bft) 97,87 %
27.01.2026 13:28 4,8 °C 4,4 °C 1,1 °C 85 % 994,7 hPa 0,0 l/m² 0 min 0 min 107 W/m² 16,1 km/h (3 Bft) 95,74 %
27.01.2026 13:30 4,8 °C 4,4 °C 1,1 °C 85 % 994,6 hPa 0,0 l/m² 0 min 0 min 114 W/m² 19,3 km/h (3 Bft) 92,45 %
27.01.2026 13:32 4,8 °C 5,0 °C 1,1 °C 85 % 994,6 hPa 0,0 l/m² 0 min 0 min 115 W/m² 16,1 km/h (3 Bft) 96,08 %
27.01.2026 13:34 4,8 °C 5,0 °C 1,1 °C 85 % 994,6 hPa 0,0 l/m² 0 min 0 min 109 W/m² 16,1 km/h (3 Bft) 94,44 %
27.01.2026 13:36 4,8 °C 5,0 °C 1,1 °C 85 % 994,6 hPa 0,0 l/m² 0 min 0 min 105 W/m² 25,7 km/h (4 Bft) 93,62 %
27.01.2026 13:38 4,9 °C 5,0 °C 1,1 °C 85 % 994,5 hPa 0,0 l/m² 0 min 0 min 105 W/m² 12,9 km/h (3 Bft) 95,74 %
27.01.2026 13:40 4,9 °C 5,0 °C 1,1 °C 85 % 994,6 hPa 0,0 l/m² 0 min 0 min 109 W/m² 22,5 km/h (4 Bft) 95,74 %
27.01.2026 13:42 4,9 °C 5,0 °C 1,1 °C 84 % 994,5 hPa 0,0 l/m² 0 min 0 min 117 W/m² 22,5 km/h (4 Bft) 94,55 %
27.01.2026 13:44 5,0 °C 5,0 °C 1,1 °C 84 % 994,4 hPa 0,0 l/m² 0 min 0 min 126 W/m² 19,3 km/h (3 Bft) 95,83 %
27.01.2026 13:46 5,0 °C 5,6 °C 1,1 °C 84 % 994,4 hPa 0,0 l/m² 0 min 0 min 140 W/m² 22,5 km/h (4 Bft) 93,75 %
27.01.2026 13:48 5,1 °C 5,6 °C 1,1 °C 84 % 994,4 hPa 0,0 l/m² 0 min 0 min 144 W/m² 12,9 km/h (3 Bft) 95,65 %
27.01.2026 13:50 5,1 °C 5,6 °C 1,1 °C 84 % 994,4 hPa 0,0 l/m² 0 min 0 min 139 W/m² 19,3 km/h (3 Bft) 95,74 %
27.01.2026 13:52 5,1 °C 5,6 °C 1,1 °C 84 % 994,4 hPa 0,0 l/m² 0 min 0 min 112 W/m² 19,3 km/h (3 Bft) 94,59 %
27.01.2026 13:54 5,2 °C 5,6 °C 1,1 °C 84 % 994,3 hPa 0,0 l/m² 0 min 0 min 99 W/m² 16,1 km/h (3 Bft) 94,83 %
27.01.2026 13:56 5,2 °C 5,6 °C 1,1 °C 84 % 994,2 hPa 0,0 l/m² 0 min 0 min 89 W/m² 19,3 km/h (3 Bft) 94,29 %
27.01.2026 13:58 5,2 °C 5,0 °C 1,1 °C 84 % 994,2 hPa 0,0 l/m² 0 min 0 min 83 W/m² 19,3 km/h (3 Bft) 91,49 %
27.01.2026 14:00 5,2 °C 5,0 °C 1,1 °C 84 % 994,2 hPa 0,0 l/m² 0 min 0 min 77 W/m² 12,9 km/h (3 Bft) 93,10 %
27.01.2026 14:02 5,2 °C 5,0 °C 1,1 °C 84 % 994,2 hPa 0,0 l/m² 0 min 0 min 76 W/m² 12,9 km/h (3 Bft) 91,67 %
27.01.2026 14:04 5,3 °C 5,0 °C 1,1 °C 84 % 994,1 hPa 0,0 l/m² 0 min 0 min 76 W/m² 12,9 km/h (3 Bft) 95,83 %
27.01.2026 14:08 5,3 °C 5,0 °C 1,1 °C 84 % 994,1 hPa 0,0 l/m² 0 min 0 min 76 W/m² 19,3 km/h (3 Bft) 94,62 %
27.01.2026 14:10 5,3 °C 5,0 °C 1,1 °C 84 % 994,0 hPa 0,0 l/m² 0 min 0 min 77 W/m² 22,5 km/h (4 Bft) 96,30 %
27.01.2026 14:12 5,3 °C 5,0 °C 1,1 °C 83 % 994,0 hPa 0,0 l/m² 0 min 0 min 78 W/m² 16,1 km/h (3 Bft) 97,50 %
27.01.2026 14:14 5,3 °C 5,0 °C 1,1 °C 83 % 993,9 hPa 0,0 l/m² 0 min 0 min 79 W/m² 12,9 km/h (3 Bft) 96,36 %
27.01.2026 14:16 5,3 °C 5,0 °C 1,1 °C 83 % 993,9 hPa 0,0 l/m² 0 min 0 min 81 W/m² 16,1 km/h (3 Bft) 97,37 %
27.01.2026 14:18 5,3 °C 5,0 °C 1,1 °C 83 % 993,9 hPa 0,0 l/m² 0 min 0 min 84 W/m² 25,7 km/h (4 Bft) 97,92 %
27.01.2026 14:20 5,3 °C 5,0 °C 1,1 °C 83 % 993,8 hPa 0,0 l/m² 0 min 0 min 89 W/m² 16,1 km/h (3 Bft) 96,00 %
27.01.2026 14:22 5,3 °C 5,0 °C 1,1 °C 83 % 993,8 hPa 0,0 l/m² 0 min 0 min 91 W/m² 16,1 km/h (3 Bft) 97,14 %
27.01.2026 14:24 5,4 °C 5,0 °C 1,1 °C 83 % 993,8 hPa 0,0 l/m² 0 min 0 min 93 W/m² 16,1 km/h (3 Bft) 98,25 %
27.01.2026 14:26 5,4 °C 5,6 °C 1,1 °C 83 % 993,7 hPa 0,0 l/m² 0 min 0 min 93 W/m² 19,3 km/h (3 Bft) 95,83 %
27.01.2026 14:28 5,4 °C 5,6 °C 1,1 °C 83 % 993,7 hPa 0,0 l/m² 0 min 0 min 91 W/m² 9,7 km/h (2 Bft) 97,92 %
27.01.2026 14:30 5,4 °C 5,6 °C 1,1 °C 83 % 993,7 hPa 0,0 l/m² 0 min 0 min 90 W/m² 19,3 km/h (3 Bft) 93,75 %
27.01.2026 14:32 5,4 °C 5,6 °C 1,1 °C 83 % 993,6 hPa 0,0 l/m² 0 min 0 min 88 W/m² 19,3 km/h (3 Bft) 97,87 %
27.01.2026 14:34 5,4 °C 5,6 °C 1,1 °C 83 % 993,6 hPa 0,0 l/m² 0 min 0 min 88 W/m² 16,1 km/h (3 Bft) 97,87 %
27.01.2026 14:36 5,5 °C 5,6 °C 1,1 °C 83 % 993,5 hPa 0,0 l/m² 0 min 0 min 88 W/m² 19,3 km/h (3 Bft) 97,87 %
27.01.2026 14:38 5,5 °C 5,6 °C 1,1 °C 83 % 993,5 hPa 0,0 l/m² 0 min 0 min 88 W/m² 16,1 km/h (3 Bft) 94,59 %
27.01.2026 14:40 5,5 °C 5,6 °C 1,1 °C 83 % 993,4 hPa 0,0 l/m² 0 min 0 min 88 W/m² 12,9 km/h (3 Bft) 100,00 %
27.01.2026 14:42 5,6 °C 5,6 °C 1,1 °C 83 % 993,3 hPa 0,0 l/m² 0 min 0 min 85 W/m² 16,1 km/h (3 Bft) 100,00 %
27.01.2026 14:44 5,6 °C 5,6 °C 1,1 °C 83 % 993,3 hPa 0,0 l/m² 0 min 0 min 83 W/m² 12,9 km/h (3 Bft) 96,00 %
27.01.2026 14:46 5,6 °C 5,6 °C 1,1 °C 83 % 993,3 hPa 0,0 l/m² 0 min 0 min 82 W/m² 12,9 km/h (3 Bft) 100,00 %
27.01.2026 14:48 5,6 °C 5,6 °C 1,1 °C 83 % 993,3 hPa 0,0 l/m² 0 min 0 min 80 W/m² 19,3 km/h (3 Bft) 100,00 %
27.01.2026 14:50 5,6 °C 5,6 °C 1,1 °C 83 % 993,2 hPa 0,0 l/m² 0 min 0 min 77 W/m² 16,1 km/h (3 Bft) 100,00 %
27.01.2026 14:52 5,6 °C 5,6 °C 1,1 °C 83 % 993,2 hPa 0,0 l/m² 0 min 0 min 73 W/m² 19,3 km/h (3 Bft) 98,00 %
27.01.2026 14:54 5,6 °C 5,6 °C 1,1 °C 83 % 993,3 hPa 0,0 l/m² 0 min 0 min 68 W/m² 19,3 km/h (3 Bft) 100,00 %
27.01.2026 14:56 5,6 °C 5,0 °C 1,1 °C 83 % 993,3 hPa 0,0 l/m² 0 min 0 min 65 W/m² 22,5 km/h (4 Bft) 97,14 %
27.01.2026 14:58 5,6 °C 5,0 °C 1,1 °C 83 % 993,2 hPa 0,0 l/m² 0 min 0 min 63 W/m² 19,3 km/h (3 Bft) 98,11 %
27.01.2026 15:00 5,6 °C 5,0 °C 1,1 °C 83 % 993,1 hPa 0,0 l/m² 0 min 0 min 62 W/m² 29,0 km/h (5 Bft) 100,00 %
27.01.2026 15:02 5,6 °C 5,0 °C 1,1 °C 82 % 993,0 hPa 0,0 l/m² 0 min 0 min 62 W/m² 19,3 km/h (3 Bft) 100,00 %
27.01.2026 15:04 5,6 °C 5,0 °C 1,1 °C 82 % 993,0 hPa 0,0 l/m² 0 min 0 min 59 W/m² 19,3 km/h (3 Bft) 98,04 %
27.01.2026 15:08 5,6 °C 5,0 °C 1,1 °C 82 % 993,1 hPa 0,0 l/m² 0 min 0 min 53 W/m² 19,3 km/h (3 Bft) 100,00 %
27.01.2026 15:10 5,6 °C 5,0 °C 1,1 °C 82 % 993,0 hPa 0,0 l/m² 0 min 0 min 49 W/m² 19,3 km/h (3 Bft) 100,00 %
27.01.2026 15:12 5,6 °C 5,0 °C 1,1 °C 82 % 993,0 hPa 0,0 l/m² 0 min 0 min 49 W/m² 12,9 km/h (3 Bft) 100,00 %
27.01.2026 15:14 5,6 °C 5,0 °C 1,1 °C 83 % 993,0 hPa 0,0 l/m² 0 min 2 min 51 W/m² 29,0 km/h (5 Bft) 97,87 %
27.01.2026 15:16 5,6 °C 5,0 °C 1,1 °C 83 % 993,0 hPa 0,0 l/m² 0 min 0 min 52 W/m² 22,5 km/h (4 Bft) 100,00 %
27.01.2026 15:18 5,6 °C 5,0 °C 1,1 °C 83 % 992,9 hPa 0,0 l/m² 0 min 0 min 54 W/m² 16,1 km/h (3 Bft) 100,00 %
27.01.2026 15:20 5,6 °C 5,0 °C 1,1 °C 83 % 992,9 hPa 0,0 l/m² 0 min 0 min 54 W/m² 16,1 km/h (3 Bft) 95,83 %
27.01.2026 15:22 5,6 °C 5,0 °C 1,1 °C 83 % 992,9 hPa 0,0 l/m² 0 min 0 min 53 W/m² 22,5 km/h (4 Bft) 100,00 %
27.01.2026 15:24 5,6 °C 5,0 °C 1,1 °C 83 % 993,0 hPa 0,0 l/m² 0 min 0 min 51 W/m² 19,3 km/h (3 Bft) 100,00 %
27.01.2026 15:26 5,6 °C 5,0 °C 1,1 °C 83 % 992,9 hPa 0,0 l/m² 0 min 0 min 47 W/m² 25,7 km/h (4 Bft) 97,92 %
27.01.2026 15:28 5,6 °C 5,0 °C 1,1 °C 83 % 993,0 hPa 0,0 l/m² 0 min 0 min 43 W/m² 16,1 km/h (3 Bft) 100,00 %
27.01.2026 15:30 5,6 °C 5,0 °C 1,1 °C 83 % 992,9 hPa 0,0 l/m² 0 min 0 min 39 W/m² 22,5 km/h (4 Bft) 100,00 %
27.01.2026 15:32 5,6 °C 5,0 °C 1,1 °C 83 % 993,0 hPa 0,0 l/m² 0 min 0 min 33 W/m² 12,9 km/h (3 Bft) 98,04 %
27.01.2026 15:34 5,6 °C 5,0 °C 1,1 °C 83 % 993,0 hPa 0,0 l/m² 0 min 0 min 31 W/m² 19,3 km/h (3 Bft) 97,87 %
27.01.2026 15:36 5,6 °C 5,0 °C 1,1 °C 83 % 993,0 hPa 0,0 l/m² 0 min 0 min 30 W/m² 12,9 km/h (3 Bft) 97,14 %
27.01.2026 15:38 5,6 °C 5,0 °C 1,1 °C 83 % 993,0 hPa 0,0 l/m² 0 min 0 min 30 W/m² 16,1 km/h (3 Bft) 60,78 %
27.01.2026 15:40 5,5 °C 5,0 °C 1,1 °C 83 % 993,0 hPa 0,0 l/m² 0 min 0 min 28 W/m² 12,9 km/h (3 Bft) 98,00 %
27.01.2026 15:42 5,5 °C 5,0 °C 1,1 °C 83 % 993,0 hPa 0,0 l/m² 0 min 0 min 30 W/m² 19,3 km/h (3 Bft) 93,62 %
27.01.2026 15:44 5,5 °C 5,0 °C 1,1 °C 83 % 992,9 hPa 0,0 l/m² 0 min 0 min 32 W/m² 22,5 km/h (4 Bft) 100,00 %
27.01.2026 15:46 5,5 °C 5,0 °C 1,1 °C 83 % 993,0 hPa 0,0 l/m² 0 min 0 min 33 W/m² 22,5 km/h (4 Bft) 96,15 %
27.01.2026 15:48 5,5 °C 5,0 °C 1,1 °C 83 % 993,1 hPa 0,0 l/m² 0 min 0 min 33 W/m² 22,5 km/h (4 Bft) 97,87 %
27.01.2026 15:50 5,5 °C 5,0 °C 1,1 °C 83 % 993,1 hPa 0,0 l/m² 0 min 0 min 33 W/m² 25,7 km/h (4 Bft) 97,14 %
27.01.2026 15:52 5,5 °C 5,0 °C 1,1 °C 83 % 993,1 hPa 0,0 l/m² 0 min 0 min 33 W/m² 22,5 km/h (4 Bft) 96,36 %
27.01.2026 15:54 5,6 °C 5,0 °C 1,1 °C 83 % 993,0 hPa 0,0 l/m² 0 min 0 min 33 W/m² 19,3 km/h (3 Bft) 95,83 %
27.01.2026 15:56 5,6 °C 5,0 °C 1,1 °C 83 % 993,1 hPa 0,0 l/m² 0 min 0 min 32 W/m² 16,1 km/h (3 Bft) 95,92 %
27.01.2026 15:58 5,6 °C 5,0 °C 1,1 °C 83 % 993,1 hPa 0,0 l/m² 0 min 0 min 31 W/m² 19,3 km/h (3 Bft) 97,67 %
27.01.2026 16:00 5,6 °C 5,0 °C 1,1 °C 83 % 993,1 hPa 0,0 l/m² 0 min 0 min 28 W/m² 19,3 km/h (3 Bft) 98,04 %
27.01.2026 16:02 5,6 °C 5,0 °C 1,1 °C 83 % 993,0 hPa 0,0 l/m² 0 min 0 min 26 W/m² 22,5 km/h (4 Bft) 97,14 %
27.01.2026 16:04 5,6 °C 5,0 °C 1,1 °C 83 % 993,1 hPa 0,0 l/m² 0 min 0 min 24 W/m² 12,9 km/h (3 Bft) 98,31 %
27.01.2026 16:10 5,6 °C 5,0 °C 1,1 °C 83 % 993,0 hPa 0,0 l/m² 0 min 0 min 19 W/m² 22,5 km/h (4 Bft) 100,00 %
27.01.2026 16:12 5,6 °C 5,0 °C 1,1 °C 83 % 992,9 hPa 0,0 l/m² 0 min 0 min 16 W/m² 19,3 km/h (3 Bft) 97,83 %
27.01.2026 16:14 5,6 °C 5,0 °C 1,1 °C 83 % 992,9 hPa 0,0 l/m² 0 min 0 min 14 W/m² 22,5 km/h (4 Bft) 97,92 %
27.01.2026 16:16 5,6 °C 5,0 °C 1,1 °C 83 % 992,9 hPa 0,0 l/m² 0 min 0 min 12 W/m² 25,7 km/h (4 Bft) 97,62 %
27.01.2026 16:18 5,6 °C 5,0 °C 1,1 °C 83 % 992,9 hPa 0,0 l/m² 0 min 0 min 12 W/m² 22,5 km/h (4 Bft) 98,00 %
27.01.2026 16:20 5,6 °C 5,0 °C 1,1 °C 83 % 993,0 hPa 0,0 l/m² 0 min 0 min 12 W/m² 29,0 km/h (5 Bft) 97,96 %
27.01.2026 16:22 5,6 °C 5,0 °C 1,1 °C 82 % 992,9 hPa 0,0 l/m² 0 min 0 min 12 W/m² 25,7 km/h (4 Bft) 97,87 %
27.01.2026 16:24 5,6 °C 5,0 °C 1,1 °C 82 % 992,9 hPa 0,0 l/m² 0 min 0 min 11 W/m² 16,1 km/h (3 Bft) 97,83 %
27.01.2026 16:28 5,6 °C 5,0 °C 0,6 °C 83 % 993,0 hPa 0,0 l/m² 0 min 4 min 11 W/m² 22,5 km/h (4 Bft) 96,81 %
27.01.2026 16:32 5,6 °C 4,4 °C 0,0 °C 83 % 993,0 hPa 0,0 l/m² 0 min 0 min 9 W/m² 25,7 km/h (4 Bft) 97,56 %
27.01.2026 16:36 5,6 °C 4,4 °C -0,6 °C 84 % 993,0 hPa 0,0 l/m² 0 min 4 min 9 W/m² 16,1 km/h (3 Bft) 97,14 %
27.01.2026 16:38 5,6 °C 4,4 °C -0,6 °C 84 % 993,0 hPa 0,2 l/m² 0 min 2 min 8 W/m² 22,5 km/h (4 Bft) 97,87 %
27.01.2026 16:40 5,5 °C 4,4 °C -0,6 °C 84 % 993,0 hPa 0,0 l/m² 0 min 2 min 7 W/m² 22,5 km/h (4 Bft) 94,29 %
27.01.2026 16:42 5,4 °C 4,4 °C -0,6 °C 84 % 993,0 hPa 0,0 l/m² 0 min 2 min 7 W/m² 29,0 km/h (5 Bft) 96,49 %
27.01.2026 16:44 5,4 °C 4,4 °C -0,6 °C 85 % 993,1 hPa 0,0 l/m² 0 min 2 min 7 W/m² 19,3 km/h (3 Bft) 95,92 %
27.01.2026 16:46 5,3 °C 4,4 °C -0,6 °C 85 % 993,2 hPa 0,0 l/m² 0 min 0 min 5 W/m² 16,1 km/h (3 Bft) 55,32 %
27.01.2026 16:48 5,3 °C 4,4 °C -0,6 °C 85 % 993,1 hPa 0,0 l/m² 0 min 0 min 5 W/m² 29,0 km/h (5 Bft) 93,33 %
27.01.2026 16:50 5,3 °C 4,4 °C -0,6 °C 85 % 993,2 hPa 0,0 l/m² 0 min 0 min 5 W/m² 19,3 km/h (3 Bft) 95,83 %
27.01.2026 16:52 5,2 °C 4,4 °C -0,6 °C 86 % 993,1 hPa 0,0 l/m² 0 min 0 min 5 W/m² 19,3 km/h (3 Bft) 97,14 %
27.01.2026 16:54 5,2 °C 3,9 °C -0,6 °C 86 % 993,1 hPa 0,0 l/m² 0 min 0 min 0 W/m² 19,3 km/h (3 Bft) 91,23 %
27.01.2026 16:56 5,2 °C 3,9 °C -0,6 °C 86 % 993,1 hPa 0,0 l/m² 0 min 0 min 0 W/m² 22,5 km/h (4 Bft) 95,92 %
27.01.2026 16:58 5,1 °C 3,9 °C -0,6 °C 87 % 993,1 hPa 0,0 l/m² 0 min 0 min 0 W/m² 29,0 km/h (5 Bft) 92,86 %
27.01.2026 17:00 5,1 °C 3,9 °C -0,6 °C 87 % 993,0 hPa 0,0 l/m² 0 min 0 min 0 W/m² 19,3 km/h (3 Bft) 96,08 %
27.01.2026 17:02 5,1 °C 3,9 °C -0,6 °C 87 % 993,0 hPa 0,0 l/m² 0 min 0 min 0 W/m² 19,3 km/h (3 Bft) 94,44 %
27.01.2026 17:04 5,1 °C 3,9 °C -0,6 °C 87 % 993,0 hPa 0,0 l/m² 0 min 0 min 0 W/m² 16,1 km/h (3 Bft) 97,87 %
27.01.2026 17:08 5,0 °C 3,9 °C -0,6 °C 87 % 992,9 hPa 0,2 l/m² 0 min 0 min 0 W/m² 22,5 km/h (4 Bft) 97,17 %
27.01.2026 17:10 4,9 °C 3,9 °C -0,6 °C 87 % 993,0 hPa 0,0 l/m² 0 min 0 min 0 W/m² 16,1 km/h (3 Bft) 97,67 %
27.01.2026 17:12 4,9 °C 3,9 °C -0,6 °C 88 % 992,9 hPa 0,0 l/m² 0 min 0 min 0 W/m² 19,3 km/h (3 Bft) 98,00 %
27.01.2026 17:14 4,9 °C 3,9 °C -0,6 °C 88 % 993,0 hPa 0,0 l/m² 0 min 0 min 0 W/m² 19,3 km/h (3 Bft) 97,22 %
27.01.2026 17:16 4,9 °C 3,9 °C -0,6 °C 88 % 992,9 hPa 0,0 l/m² 0 min 2 min 0 W/m² 22,5 km/h (4 Bft) 95,65 %
27.01.2026 17:18 4,8 °C 3,9 °C -0,6 °C 88 % 992,9 hPa 0,0 l/m² 0 min 2 min 0 W/m² 22,5 km/h (4 Bft) 98,21 %
27.01.2026 17:20 4,8 °C 3,9 °C -0,6 °C 88 % 992,9 hPa 0,2 l/m² 0 min 2 min 0 W/m² 19,3 km/h (3 Bft) 97,96 %
27.01.2026 17:22 4,8 °C 3,9 °C -0,6 °C 88 % 992,9 hPa 0,0 l/m² 0 min 2 min 0 W/m² 19,3 km/h (3 Bft) 93,75 %
27.01.2026 17:24 4,8 °C 3,9 °C -0,6 °C 88 % 993,0 hPa 0,0 l/m² 0 min 2 min 0 W/m² 29,0 km/h (5 Bft) 97,14 %
27.01.2026 17:26 4,8 °C 3,9 °C -0,6 °C 89 % 993,0 hPa 0,0 l/m² 0 min 2 min 0 W/m² 16,1 km/h (3 Bft) 95,65 %
27.01.2026 17:28 4,8 °C 3,9 °C -0,6 °C 89 % 992,9 hPa 0,0 l/m² 0 min 2 min 0 W/m² 25,7 km/h (4 Bft) 94,64 %
27.01.2026 17:30 4,7 °C 3,9 °C -0,6 °C 89 % 992,9 hPa 0,0 l/m² 0 min 2 min 0 W/m² 12,9 km/h (3 Bft) 94,00 %
27.01.2026 17:32 4,7 °C 3,3 °C -0,6 °C 89 % 993,0 hPa 0,0 l/m² 0 min 0 min 0 W/m² 19,3 km/h (3 Bft) 97,83 %
27.01.2026 17:36 4,7 °C 3,3 °C -0,6 °C 90 % 993,0 hPa 0,0 l/m² 0 min 4 min 0 W/m² 16,1 km/h (3 Bft) 95,18 %
27.01.2026 17:40 4,6 °C 3,9 °C -0,6 °C 90 % 993,0 hPa 0,2 l/m² 0 min 4 min 0 W/m² 19,3 km/h (3 Bft) 97,14 %
27.01.2026 17:42 4,6 °C 3,9 °C -0,6 °C 90 % 993,0 hPa 0,0 l/m² 0 min 2 min 0 W/m² 22,5 km/h (4 Bft) 94,29 %
27.01.2026 17:44 4,6 °C 3,9 °C -0,6 °C 90 % 993,0 hPa 0,0 l/m² 0 min 2 min 0 W/m² 19,3 km/h (3 Bft) 96,49 %
27.01.2026 17:48 4,6 °C 3,3 °C -0,6 °C 91 % 993,0 hPa 0,2 l/m² 0 min 4 min 0 W/m² 25,7 km/h (4 Bft) 71,60 %
27.01.2026 17:52 4,6 °C 3,3 °C -0,6 °C 91 % 993,0 hPa 0,0 l/m² 0 min 4 min 0 W/m² 22,5 km/h (4 Bft) 91,43 %
27.01.2026 17:56 4,5 °C 3,3 °C -0,6 °C 91 % 993,0 hPa 0,0 l/m² 0 min 4 min 0 W/m² 25,7 km/h (4 Bft) 95,56 %
27.01.2026 18:00 4,5 °C 3,3 °C -0,6 °C 92 % 993,1 hPa 0,0 l/m² 0 min 4 min 0 W/m² 22,5 km/h (4 Bft) 97,67 %
27.01.2026 18:01 4,4 °C 3,3 °C -0,6 °C 92 % 993,0 hPa 0,0 l/m² 0 min 1 min 0 W/m² 12,9 km/h (3 Bft) 100,00 %
27.01.2026 18:02 4,4 °C 3,3 °C -0,6 °C 92 % 993,0 hPa 0,0 l/m² 0 min 1 min 0 W/m² 12,9 km/h (3 Bft) 96,08 %
27.01.2026 18:08 4,4 °C 3,3 °C -0,6 °C 92 % 992,9 hPa 0,0 l/m² 0 min 5 min 0 W/m² 19,3 km/h (3 Bft) 100,00 %
27.01.2026 18:10 4,4 °C 3,3 °C -0,6 °C 92 % 993,0 hPa 0,0 l/m² 0 min 2 min 0 W/m² 16,1 km/h (3 Bft) 98,11 %
27.01.2026 18:12 4,4 °C 3,3 °C -0,6 °C 92 % 993,0 hPa 0,2 l/m² 0 min 2 min 0 W/m² 19,3 km/h (3 Bft) 98,00 %
27.01.2026 18:16 4,4 °C 3,3 °C -0,6 °C 92 % 993,0 hPa 0,0 l/m² 0 min 4 min 0 W/m² 25,7 km/h (4 Bft) 98,81 %
27.01.2026 18:20 4,4 °C 3,3 °C -0,6 °C 93 % 993,0 hPa 0,2 l/m² 0 min 4 min 0 W/m² 16,1 km/h (3 Bft) 99,04 %
27.01.2026 18:22 4,4 °C 3,3 °C -0,6 °C 93 % 993,0 hPa 0,0 l/m² 0 min 2 min 0 W/m² 19,3 km/h (3 Bft) 94,59 %
27.01.2026 18:24 4,4 °C 3,3 °C -0,6 °C 93 % 993,0 hPa 0,0 l/m² 0 min 2 min 0 W/m² 16,1 km/h (3 Bft) 98,21 %
27.01.2026 18:26 4,4 °C 3,3 °C -0,6 °C 93 % 993,0 hPa 0,0 l/m² 0 min 2 min 0 W/m² 22,5 km/h (4 Bft) 100,00 %
27.01.2026 18:28 4,3 °C 3,3 °C -0,6 °C 93 % 993,0 hPa 0,0 l/m² 0 min 2 min 0 W/m² 19,3 km/h (3 Bft) 97,87 %
27.01.2026 18:30 4,3 °C 3,3 °C -0,6 °C 93 % 992,9 hPa 0,2 l/m² 0 min 2 min 0 W/m² 16,1 km/h (3 Bft) 100,00 %
27.01.2026 18:32 4,3 °C 3,3 °C -0,6 °C 93 % 993,0 hPa 0,0 l/m² 0 min 2 min 0 W/m² 19,3 km/h (3 Bft) 97,37 %
27.01.2026 18:34 4,3 °C 3,3 °C -0,6 °C 93 % 992,9 hPa 0,0 l/m² 0 min 2 min 0 W/m² 16,1 km/h (3 Bft) 96,43 %
27.01.2026 18:38 4,3 °C 3,3 °C -0,6 °C 93 % 993,0 hPa 0,2 l/m² 0 min 4 min 0 W/m² 19,3 km/h (3 Bft) 97,83 %
27.01.2026 18:40 4,3 °C 3,3 °C -0,6 °C 93 % 992,9 hPa 0,0 l/m² 0 min 2 min 0 W/m² 12,9 km/h (3 Bft) 97,44 %
27.01.2026 18:42 4,3 °C 3,3 °C -0,6 °C 93 % 993,0 hPa 0,0 l/m² 0 min 2 min 0 W/m² 16,1 km/h (3 Bft) 91,49 %
27.01.2026 18:44 4,3 °C 3,3 °C -0,6 °C 94 % 993,0 hPa 0,2 l/m² 0 min 2 min 0 W/m² 22,5 km/h (4 Bft) 98,21 %
27.01.2026 18:46 4,2 °C 3,3 °C -0,6 °C 94 % 993,0 hPa 0,0 l/m² 0 min 2 min 0 W/m² 16,1 km/h (3 Bft) 97,37 %
27.01.2026 18:50 4,2 °C 3,3 °C -0,6 °C 94 % 993,0 hPa 0,0 l/m² 0 min 4 min 0 W/m² 25,7 km/h (4 Bft) 96,77 %
27.01.2026 18:52 4,2 °C 3,3 °C -0,6 °C 94 % 992,9 hPa 0,0 l/m² 0 min 2 min 0 W/m² 22,5 km/h (4 Bft) 98,11 %
27.01.2026 18:54 4,2 °C 3,3 °C -0,6 °C 94 % 992,9 hPa 0,2 l/m² 0 min 2 min 0 W/m² 22,5 km/h (4 Bft) 100,00 %
27.01.2026 18:58 4,2 °C 3,3 °C -0,6 °C 94 % 992,9 hPa 0,0 l/m² 0 min 4 min 0 W/m² 22,5 km/h (4 Bft) 97,59 %
27.01.2026 19:00 4,2 °C 3,3 °C -0,6 °C 94 % 992,9 hPa 0,0 l/m² 0 min 2 min 0 W/m² 22,5 km/h (4 Bft) 98,21 %
27.01.2026 19:02 4,2 °C 3,3 °C -0,6 °C 94 % 992,9 hPa 0,0 l/m² 0 min 2 min 0 W/m² 16,1 km/h (3 Bft) 97,30 %
27.01.2026 19:04 4,2 °C 3,3 °C -0,6 °C 94 % 992,9 hPa 0,0 l/m² 0 min 2 min 0 W/m² 16,1 km/h (3 Bft) 97,92 %
27.01.2026 19:10 4,2 °C 3,3 °C -0,6 °C 94 % 992,9 hPa 0,2 l/m² 0 min 5 min 0 W/m² 22,5 km/h (4 Bft) 97,35 %
27.01.2026 19:12 4,2 °C 3,3 °C -0,6 °C 95 % 992,9 hPa 0,0 l/m² 0 min 2 min 0 W/m² 12,9 km/h (3 Bft) 97,22 %
27.01.2026 19:16 4,1 °C 3,3 °C -0,6 °C 95 % 993,0 hPa 0,0 l/m² 0 min 0 min 0 W/m² 29,0 km/h (5 Bft) 96,81 %
27.01.2026 19:20 4,2 °C 3,3 °C -0,6 °C 95 % 992,9 hPa 0,0 l/m² 0 min 4 min 0 W/m² 16,1 km/h (3 Bft) 97,87 %
27.01.2026 19:22 4,2 °C 3,3 °C -0,6 °C 95 % 993,0 hPa 0,0 l/m² 0 min 2 min 0 W/m² 12,9 km/h (3 Bft) 96,36 %
27.01.2026 19:24 4,1 °C 3,3 °C -0,6 °C 95 % 993,0 hPa 0,0 l/m² 0 min 2 min 0 W/m² 16,1 km/h (3 Bft) 97,96 %
27.01.2026 19:26 4,1 °C 3,3 °C -0,6 °C 95 % 992,9 hPa 0,0 l/m² 0 min 2 min 0 W/m² 16,1 km/h (3 Bft) 100,00 %
27.01.2026 19:28 4,1 °C 3,3 °C -0,6 °C 95 % 992,9 hPa 0,2 l/m² 0 min 2 min 0 W/m² 6,4 km/h (2 Bft) 97,87 %
27.01.2026 19:30 4,1 °C 3,3 °C -0,6 °C 95 % 992,9 hPa 0,0 l/m² 0 min 0 min 0 W/m² 22,5 km/h (4 Bft) 97,87 %
27.01.2026 19:32 4,1 °C 3,3 °C -0,6 °C 95 % 992,9 hPa 0,0 l/m² 0 min 2 min 0 W/m² 16,1 km/h (3 Bft) 94,74 %
27.01.2026 19:36 4,1 °C 3,3 °C -0,6 °C 95 % 992,9 hPa 0,0 l/m² 0 min 4 min 0 W/m² 19,3 km/h (3 Bft) 97,78 %
27.01.2026 19:38 4,1 °C 3,3 °C -0,6 °C 95 % 992,9 hPa 0,0 l/m² 0 min 2 min 0 W/m² 12,9 km/h (3 Bft) 98,00 %
27.01.2026 19:40 4,1 °C 3,3 °C -0,6 °C 95 % 992,9 hPa 0,0 l/m² 0 min 2 min 0 W/m² 16,1 km/h (3 Bft) 97,30 %
27.01.2026 19:44 4,1 °C 3,3 °C -0,6 °C 95 % 992,9 hPa 0,0 l/m² 0 min 4 min 0 W/m² 19,3 km/h (3 Bft) 95,05 %
27.01.2026 19:46 4,1 °C 3,3 °C -0,6 °C 95 % 993,0 hPa 0,0 l/m² 0 min 2 min 0 W/m² 19,3 km/h (3 Bft) 95,00 %
27.01.2026 19:48 4,1 °C 3,3 °C -0,6 °C 95 % 993,0 hPa 0,2 l/m² 0 min 2 min 0 W/m² 16,1 km/h (3 Bft) 95,65 %
27.01.2026 19:50 4,1 °C 3,3 °C -0,6 °C 95 % 993,0 hPa 0,0 l/m² 0 min 2 min 0 W/m² 12,9 km/h (3 Bft) 98,11 %
27.01.2026 19:52 4,1 °C 3,3 °C -0,6 °C 96 % 993,0 hPa 0,0 l/m² 0 min 2 min 0 W/m² 16,1 km/h (3 Bft) 100,00 %
27.01.2026 19:54 4,1 °C 3,3 °C -0,6 °C 96 % 993,0 hPa 0,0 l/m² 0 min 2 min 0 W/m² 12,9 km/h (3 Bft) 94,74 %
27.01.2026 19:56 4,1 °C 3,3 °C -0,6 °C 96 % 993,0 hPa 0,0 l/m² 0 min 2 min 0 W/m² 16,1 km/h (3 Bft) 97,87 %
27.01.2026 19:58 4,1 °C 3,3 °C -0,6 °C 96 % 993,0 hPa 0,2 l/m² 0 min 2 min 0 W/m² 19,3 km/h (3 Bft) 98,11 %
27.01.2026 20:00 4,1 °C 3,3 °C -0,6 °C 96 % 993,1 hPa 0,0 l/m² 0 min 2 min 0 W/m² 12,9 km/h (3 Bft) 97,44 %
27.01.2026 20:02 4,1 °C 3,3 °C -0,6 °C 96 % 993,0 hPa 0,0 l/m² 0 min 2 min 0 W/m² 16,1 km/h (3 Bft) 97,22 %
27.01.2026 20:04 4,1 °C 3,3 °C -0,6 °C 96 % 993,1 hPa 0,0 l/m² 0 min 2 min 0 W/m² 16,1 km/h (3 Bft) 96,67 %
27.01.2026 20:08 4,0 °C 3,3 °C -0,6 °C 96 % 993,1 hPa 0,0 l/m² 0 min 4 min 0 W/m² 22,5 km/h (4 Bft) 96,15 %
27.01.2026 20:10 4,0 °C 3,3 °C -0,6 °C 96 % 993,1 hPa 0,0 l/m² 0 min 2 min 0 W/m² 16,1 km/h (3 Bft) 97,22 %
27.01.2026 20:14 4,0 °C 3,3 °C -0,6 °C 96 % 993,1 hPa 0,0 l/m² 0 min 4 min 0 W/m² 12,9 km/h (3 Bft) 98,21 %
27.01.2026 20:16 4,0 °C 3,3 °C -0,6 °C 96 % 993,2 hPa 0,0 l/m² 0 min 2 min 0 W/m² 16,1 km/h (3 Bft) 94,59 %
27.01.2026 20:18 4,0 °C 3,3 °C -0,6 °C 96 % 993,2 hPa 0,0 l/m² 0 min 2 min 0 W/m² 12,9 km/h (3 Bft) 97,83 %
27.01.2026 20:20 4,0 °C 3,3 °C -0,6 °C 96 % 993,2 hPa 0,2 l/m² 0 min 2 min 0 W/m² 12,9 km/h (3 Bft) 96,55 %
27.01.2026 20:22 4,0 °C 3,3 °C -0,6 °C 96 % 993,2 hPa 0,0 l/m² 0 min 2 min 0 W/m² 19,3 km/h (3 Bft) 97,22 %
27.01.2026 20:24 3,9 °C 3,3 °C -0,6 °C 96 % 993,2 hPa 0,0 l/m² 0 min 2 min 0 W/m² 22,5 km/h (4 Bft) 98,28 %
27.01.2026 20:26 3,9 °C 3,3 °C -0,6 °C 96 % 993,2 hPa 0,0 l/m² 0 min 2 min 0 W/m² 19,3 km/h (3 Bft) 94,29 %
27.01.2026 20:28 3,9 °C 3,3 °C -0,6 °C 96 % 993,2 hPa 0,0 l/m² 0 min 2 min 0 W/m² 9,7 km/h (2 Bft) 97,92 %
27.01.2026 20:30 4,0 °C 3,3 °C -0,6 °C 96 % 993,2 hPa 0,2 l/m² 0 min 2 min 0 W/m² 16,1 km/h (3 Bft) 97,83 %
27.01.2026 20:32 3,9 °C 3,3 °C -0,6 °C 96 % 993,1 hPa 0,0 l/m² 0 min 2 min 0 W/m² 19,3 km/h (3 Bft) 97,92 %
27.01.2026 20:34 3,9 °C 3,3 °C -0,6 °C 96 % 993,2 hPa 0,0 l/m² 0 min 0 min 0 W/m² 19,3 km/h (3 Bft) 95,74 %
27.01.2026 20:36 3,9 °C 3,3 °C -0,6 °C 96 % 993,1 hPa 0,0 l/m² 0 min 2 min 0 W/m² 16,1 km/h (3 Bft) 100,00 %
27.01.2026 20:38 3,9 °C 3,3 °C -0,6 °C 96 % 993,1 hPa 0,0 l/m² 0 min 2 min 0 W/m² 16,1 km/h (3 Bft) 97,87 %
27.01.2026 20:40 3,9 °C 3,3 °C -0,6 °C 96 % 993,1 hPa 0,0 l/m² 0 min 2 min 0 W/m² 12,9 km/h (3 Bft) 100,00 %
27.01.2026 20:42 3,9 °C 3,3 °C -0,6 °C 96 % 993,1 hPa 0,0 l/m² 0 min 0 min 0 W/m² 12,9 km/h (3 Bft) 97,87 %
27.01.2026 20:44 3,9 °C 3,3 °C -0,6 °C 96 % 993,1 hPa 0,0 l/m² 0 min 2 min 0 W/m² 12,9 km/h (3 Bft) 97,87 %
27.01.2026 20:46 4,0 °C 3,3 °C -0,6 °C 96 % 993,1 hPa 0,0 l/m² 0 min 2 min 0 W/m² 22,5 km/h (4 Bft) 97,83 %
27.01.2026 20:48 3,9 °C 3,3 °C -0,6 °C 96 % 993,1 hPa 0,0 l/m² 0 min 0 min 0 W/m² 19,3 km/h (3 Bft) 100,00 %
27.01.2026 20:50 3,9 °C 3,3 °C -0,6 °C 96 % 993,1 hPa 0,0 l/m² 0 min 0 min 0 W/m² 22,5 km/h (4 Bft) 96,43 %
27.01.2026 20:52 3,9 °C 3,3 °C -0,6 °C 96 % 993,1 hPa 0,0 l/m² 0 min 0 min 0 W/m² 16,1 km/h (3 Bft) 100,00 %
27.01.2026 20:54 3,9 °C 3,3 °C -0,6 °C 96 % 993,2 hPa 0,0 l/m² 0 min 0 min 0 W/m² 12,9 km/h (3 Bft) 100,00 %
27.01.2026 20:56 4,0 °C 3,3 °C -0,6 °C 96 % 993,2 hPa 0,2 l/m² 0 min 0 min 0 W/m² 12,9 km/h (3 Bft) 98,15 %
27.01.2026 20:58 3,9 °C 3,3 °C -0,6 °C 96 % 993,2 hPa 0,0 l/m² 0 min 0 min 0 W/m² 12,9 km/h (3 Bft) 95,92 %
27.01.2026 21:00 4,0 °C 3,3 °C -0,6 °C 97 % 993,2 hPa 0,0 l/m² 0 min 0 min 0 W/m² 19,3 km/h (3 Bft) 100,00 %
27.01.2026 21:02 4,0 °C 3,3 °C -0,6 °C 97 % 993,2 hPa 0,0 l/m² 0 min 0 min 0 W/m² 16,1 km/h (3 Bft) 100,00 %
27.01.2026 21:04 4,0 °C 3,3 °C -0,6 °C 97 % 993,2 hPa 0,0 l/m² 0 min 0 min 0 W/m² 12,9 km/h (3 Bft) 95,92 %
27.01.2026 21:10 4,0 °C 3,3 °C -0,6 °C 97 % 993,2 hPa 0,0 l/m² 0 min 0 min 0 W/m² 25,7 km/h (4 Bft) 96,60 %
27.01.2026 21:12 4,0 °C 3,3 °C -0,6 °C 97 % 993,3 hPa 0,0 l/m² 0 min 0 min 0 W/m² 16,1 km/h (3 Bft) 94,44 %
27.01.2026 21:14 4,0 °C 3,3 °C -0,6 °C 97 % 993,3 hPa 0,2 l/m² 0 min 0 min 0 W/m² 16,1 km/h (3 Bft) 98,04 %
27.01.2026 21:16 4,0 °C 3,3 °C -0,6 °C 97 % 993,2 hPa 0,0 l/m² 0 min 0 min 0 W/m² 16,1 km/h (3 Bft) 96,30 %
27.01.2026 21:18 4,0 °C 3,3 °C -0,6 °C 97 % 993,3 hPa 0,0 l/m² 0 min 0 min 0 W/m² 16,1 km/h (3 Bft) 95,65 %
27.01.2026 21:20 4,0 °C 3,3 °C -0,6 °C 97 % 993,3 hPa 0,0 l/m² 0 min 0 min 0 W/m² 25,7 km/h (4 Bft) 95,00 %
27.01.2026 21:22 3,9 °C 3,3 °C -0,6 °C 97 % 993,3 hPa 0,0 l/m² 0 min 0 min 0 W/m² 16,1 km/h (3 Bft) 95,74 %
27.01.2026 21:24 4,0 °C 3,3 °C -0,6 °C 97 % 993,3 hPa 0,0 l/m² 0 min 0 min 0 W/m² 12,9 km/h (3 Bft) 93,62 %
27.01.2026 21:26 4,0 °C 3,3 °C 0,0 °C 97 % 993,3 hPa 0,0 l/m² 0 min 0 min 0 W/m² 19,3 km/h (3 Bft) 93,62 %
27.01.2026 21:28 4,0 °C 3,3 °C 0,0 °C 97 % 993,3 hPa 0,0 l/m² 0 min 0 min 0 W/m² 12,9 km/h (3 Bft) 91,11 %
27.01.2026 21:30 4,0 °C 3,3 °C 0,0 °C 97 % 993,3 hPa 0,0 l/m² 0 min 0 min 0 W/m² 16,1 km/h (3 Bft) 95,92 %
27.01.2026 21:32 4,0 °C 3,3 °C 0,0 °C 97 % 993,4 hPa 0,0 l/m² 0 min 2 min 0 W/m² 12,9 km/h (3 Bft) 93,48 %
27.01.2026 21:34 4,0 °C 3,3 °C 0,0 °C 97 % 993,4 hPa 0,0 l/m² 0 min 0 min 0 W/m² 16,1 km/h (3 Bft) 91,49 %
27.01.2026 21:36 4,0 °C 3,3 °C 0,0 °C 97 % 993,4 hPa 0,0 l/m² 0 min 0 min 0 W/m² 6,4 km/h (2 Bft) 95,74 %
27.01.2026 21:38 4,0 °C 3,3 °C 0,0 °C 97 % 993,4 hPa 0,0 l/m² 0 min 0 min 0 W/m² 12,9 km/h (3 Bft) 95,45 %
27.01.2026 21:40 4,0 °C 3,3 °C 0,0 °C 97 % 993,5 hPa 0,0 l/m² 0 min 0 min 0 W/m² 9,7 km/h (2 Bft) 91,07 %
27.01.2026 21:42 4,0 °C 3,3 °C 0,0 °C 97 % 993,4 hPa 0,0 l/m² 0 min 0 min 0 W/m² 19,3 km/h (3 Bft) 100,00 %
27.01.2026 21:44 4,0 °C 3,3 °C 0,0 °C 97 % 993,4 hPa 0,0 l/m² 0 min 0 min 0 W/m² 12,9 km/h (3 Bft) 100,00 %
27.01.2026 21:46 4,0 °C 3,3 °C 0,0 °C 97 % 993,5 hPa 0,0 l/m² 0 min 0 min 0 W/m² 16,1 km/h (3 Bft) 97,87 %
27.01.2026 21:48 4,0 °C 3,3 °C 0,0 °C 97 % 993,5 hPa 0,0 l/m² 0 min 0 min 0 W/m² 16,1 km/h (3 Bft) 100,00 %
27.01.2026 21:50 4,0 °C 3,3 °C 0,0 °C 97 % 993,4 hPa 0,0 l/m² 0 min 0 min 0 W/m² 16,1 km/h (3 Bft) 100,00 %
27.01.2026 21:52 4,0 °C 3,3 °C 0,0 °C 97 % 993,3 hPa 0,0 l/m² 0 min 0 min 0 W/m² 12,9 km/h (3 Bft) 100,00 %
27.01.2026 21:54 4,0 °C 3,3 °C 0,0 °C 97 % 993,3 hPa 0,0 l/m² 0 min 0 min 0 W/m² 12,9 km/h (3 Bft) 100,00 %
27.01.2026 21:56 4,0 °C 3,3 °C 0,0 °C 97 % 993,3 hPa 0,0 l/m² 0 min 0 min 0 W/m² 19,3 km/h (3 Bft) 97,87 %
27.01.2026 21:58 4,0 °C 3,3 °C 0,0 °C 97 % 993,4 hPa 0,0 l/m² 0 min 0 min 0 W/m² 12,9 km/h (3 Bft) 100,00 %
27.01.2026 22:00 4,0 °C 3,3 °C 0,0 °C 97 % 993,4 hPa 0,0 l/m² 0 min 0 min 0 W/m² 16,1 km/h (3 Bft) 98,21 %
27.01.2026 22:02 4,0 °C 3,3 °C 0,0 °C 97 % 993,4 hPa 0,0 l/m² 0 min 0 min 0 W/m² 12,9 km/h (3 Bft) 97,50 %
27.01.2026 22:04 4,0 °C 3,3 °C 0,0 °C 97 % 993,3 hPa 0,0 l/m² 0 min 0 min 0 W/m² 12,9 km/h (3 Bft) 100,00 %
27.01.2026 22:06 4,0 °C 3,3 °C 0,0 °C 97 % 993,3 hPa 0,0 l/m² 0 min 0 min 0 W/m² 12,9 km/h (3 Bft) 100,00 %
27.01.2026 22:08 4,0 °C 3,3 °C 0,0 °C 97 % 993,3 hPa 0,0 l/m² 0 min 0 min 0 W/m² 12,9 km/h (3 Bft) 100,00 %
27.01.2026 22:10 4,0 °C 3,3 °C 0,0 °C 97 % 993,3 hPa 0,0 l/m² 0 min 0 min 0 W/m² 12,9 km/h (3 Bft) 100,00 %
27.01.2026 22:12 4,0 °C 3,3 °C 0,0 °C 97 % 993,4 hPa 0,0 l/m² 0 min 0 min 0 W/m² 12,9 km/h (3 Bft) 97,78 %
27.01.2026 22:14 4,0 °C 3,3 °C 0,0 °C 97 % 993,3 hPa 0,0 l/m² 0 min 0 min 0 W/m² 6,4 km/h (2 Bft) 100,00 %
27.01.2026 22:16 3,9 °C 3,3 °C 0,0 °C 97 % 993,3 hPa 0,0 l/m² 0 min 0 min 0 W/m² 12,9 km/h (3 Bft) 100,00 %
27.01.2026 22:18 4,0 °C 3,3 °C 0,0 °C 97 % 993,3 hPa 0,0 l/m² 0 min 0 min 0 W/m² 12,9 km/h (3 Bft) 100,00 %
27.01.2026 22:20 4,0 °C 3,3 °C 0,0 °C 97 % 993,3 hPa 0,0 l/m² 0 min 0 min 0 W/m² 12,9 km/h (3 Bft) 100,00 %
27.01.2026 22:22 4,0 °C 3,3 °C 0,0 °C 97 % 993,4 hPa 0,0 l/m² 0 min 0 min 0 W/m² 12,9 km/h (3 Bft) 100,00 %
27.01.2026 22:24 3,9 °C 3,3 °C 0,0 °C 97 % 993,4 hPa 0,0 l/m² 0 min 0 min 0 W/m² 16,1 km/h (3 Bft) 100,00 %
27.01.2026 22:26 4,0 °C 3,3 °C 0,0 °C 97 % 993,4 hPa 0,0 l/m² 0 min 0 min 0 W/m² 6,4 km/h (2 Bft) 93,62 %
27.01.2026 22:28 3,9 °C 3,3 °C 0,0 °C 97 % 993,4 hPa 0,0 l/m² 0 min 0 min 0 W/m² 16,1 km/h (3 Bft) 100,00 %
27.01.2026 22:30 3,9 °C 3,3 °C 0,0 °C 97 % 993,4 hPa 0,0 l/m² 0 min 0 min 0 W/m² 12,9 km/h (3 Bft) 95,92 %
27.01.2026 22:32 4,0 °C 3,3 °C 0,0 °C 97 % 993,4 hPa 0,0 l/m² 0 min 0 min 0 W/m² 16,1 km/h (3 Bft) 100,00 %
27.01.2026 22:34 4,0 °C 3,3 °C 0,0 °C 97 % 993,4 hPa 0,0 l/m² 0 min 0 min 0 W/m² 16,1 km/h (3 Bft) 100,00 %
27.01.2026 22:36 4,0 °C 3,3 °C 0,0 °C 97 % 993,4 hPa 0,0 l/m² 0 min 0 min 0 W/m² 12,9 km/h (3 Bft) 97,73 %
27.01.2026 22:38 4,0 °C 3,3 °C 0,0 °C 97 % 993,4 hPa 0,0 l/m² 0 min 0 min 0 W/m² 12,9 km/h (3 Bft) 100,00 %
27.01.2026 22:40 4,0 °C 3,3 °C 0,0 °C 97 % 993,4 hPa 0,0 l/m² 0 min 0 min 0 W/m² 16,1 km/h (3 Bft) 97,56 %
27.01.2026 22:42 4,0 °C 3,3 °C 0,0 °C 97 % 993,5 hPa 0,0 l/m² 0 min 0 min 0 W/m² 12,9 km/h (3 Bft) 97,78 %
27.01.2026 22:44 4,0 °C 3,3 °C 0,0 °C 97 % 993,6 hPa 0,0 l/m² 0 min 0 min 0 W/m² 16,1 km/h (3 Bft) 95,35 %
27.01.2026 22:46 4,0 °C 3,3 °C 0,0 °C 97 % 993,7 hPa 0,0 l/m² 0 min 0 min 0 W/m² 12,9 km/h (3 Bft) 96,15 %
27.01.2026 22:48 4,0 °C 3,3 °C 0,0 °C 97 % 993,7 hPa 0,0 l/m² 0 min 0 min 0 W/m² 12,9 km/h (3 Bft) 95,74 %
27.01.2026 22:50 4,0 °C 3,3 °C 0,0 °C 97 % 993,7 hPa 0,0 l/m² 0 min 0 min 0 W/m² 16,1 km/h (3 Bft) 96,88 %
27.01.2026 22:52 4,0 °C 3,3 °C 0,0 °C 97 % 993,7 hPa 0,0 l/m² 0 min 0 min 0 W/m² 16,1 km/h (3 Bft) 96,49 %
27.01.2026 22:54 4,0 °C 3,3 °C 0,0 °C 97 % 993,6 hPa 0,0 l/m² 0 min 0 min 0 W/m² 12,9 km/h (3 Bft) 96,08 %
27.01.2026 22:56 4,0 °C 3,3 °C 0,0 °C 97 % 993,6 hPa 0,0 l/m² 0 min 0 min 0 W/m² 16,1 km/h (3 Bft) 97,87 %
27.01.2026 22:58 4,0 °C 3,3 °C 0,0 °C 97 % 993,6 hPa 0,0 l/m² 0 min 0 min 0 W/m² 6,4 km/h (2 Bft) 97,78 %
27.01.2026 23:00 4,0 °C 3,3 °C 0,0 °C 97 % 993,6 hPa 0,0 l/m² 0 min 0 min 0 W/m² 6,4 km/h (2 Bft) 97,73 %
27.01.2026 23:02 4,0 °C 3,3 °C 0,0 °C 97 % 993,6 hPa 0,0 l/m² 0 min 0 min 0 W/m² 12,9 km/h (3 Bft) 96,15 %
27.01.2026 23:04 4,0 °C 3,3 °C 0,0 °C 97 % 993,7 hPa 0,0 l/m² 0 min 0 min 0 W/m² 12,9 km/h (3 Bft) 95,65 %
27.01.2026 23:07 4,0 °C 3,3 °C 0,0 °C 97 % 993,7 hPa 0,0 l/m² 0 min 0 min 0 W/m² 12,9 km/h (3 Bft) 94,12 %
27.01.2026 23:08 4,0 °C 3,3 °C 0,0 °C 97 % 993,7 hPa 0,0 l/m² 0 min 0 min 0 W/m² 6,4 km/h (2 Bft) 96,30 %
27.01.2026 23:12 4,0 °C 3,3 °C 0,0 °C 97 % 993,7 hPa 0,0 l/m² 0 min 0 min 0 W/m² 6,4 km/h (2 Bft) 94,92 %
27.01.2026 23:14 4,0 °C 3,3 °C 0,0 °C 97 % 993,8 hPa 0,0 l/m² 0 min 0 min 0 W/m² 6,4 km/h (2 Bft) 93,62 %
27.01.2026 23:16 4,0 °C 3,3 °C 0,0 °C 97 % 993,8 hPa 0,0 l/m² 0 min 0 min 0 W/m² 6,4 km/h (2 Bft) 93,48 %
27.01.2026 23:18 4,0 °C 3,3 °C 0,0 °C 97 % 993,7 hPa 0,0 l/m² 0 min 0 min 0 W/m² 9,7 km/h (2 Bft) 95,65 %
27.01.2026 23:20 4,0 °C 3,3 °C 0,0 °C 97 % 993,8 hPa 0,0 l/m² 0 min 0 min 0 W/m² 12,9 km/h (3 Bft) 93,18 %
27.01.2026 23:22 4,0 °C 3,3 °C 0,0 °C 97 % 993,7 hPa 0,0 l/m² 0 min 0 min 0 W/m² 12,9 km/h (3 Bft) 96,08 %
27.01.2026 23:24 4,0 °C 3,3 °C 0,0 °C 97 % 993,7 hPa 0,0 l/m² 0 min 0 min 0 W/m² 6,4 km/h (2 Bft) 95,74 %
27.01.2026 23:26 4,0 °C 3,3 °C 0,0 °C 97 % 993,7 hPa 0,0 l/m² 0 min 0 min 0 W/m² 16,1 km/h (3 Bft) 93,62 %
27.01.2026 23:28 4,0 °C 3,3 °C 0,0 °C 97 % 993,8 hPa 0,0 l/m² 0 min 0 min 0 W/m² 19,3 km/h (3 Bft) 95,56 %
27.01.2026 23:30 4,0 °C 3,3 °C 0,0 °C 97 % 993,8 hPa 0,0 l/m² 0 min 0 min 0 W/m² 12,9 km/h (3 Bft) 90,91 %
27.01.2026 23:32 4,0 °C 3,3 °C 0,0 °C 97 % 993,9 hPa 0,0 l/m² 0 min 0 min 0 W/m² 6,4 km/h (2 Bft) 92,16 %
27.01.2026 23:34 4,0 °C 3,3 °C 0,0 °C 97 % 994,0 hPa 0,0 l/m² 0 min 0 min 0 W/m² 6,4 km/h (2 Bft) 97,87 %
27.01.2026 23:36 4,0 °C 3,3 °C 0,0 °C 97 % 994,0 hPa 0,0 l/m² 0 min 0 min 0 W/m² 16,1 km/h (3 Bft) 97,67 %
27.01.2026 23:38 4,0 °C 3,3 °C 0,0 °C 97 % 994,0 hPa 0,0 l/m² 0 min 0 min 0 W/m² 12,9 km/h (3 Bft) 98,04 %
27.01.2026 23:40 4,0 °C 3,3 °C 0,0 °C 97 % 993,9 hPa 0,0 l/m² 0 min 0 min 0 W/m² 12,9 km/h (3 Bft) 97,83 %
27.01.2026 23:42 4,0 °C 3,3 °C 0,0 °C 97 % 993,9 hPa 0,0 l/m² 0 min 0 min 0 W/m² 12,9 km/h (3 Bft) 97,67 %
27.01.2026 23:44 4,0 °C 3,3 °C 0,0 °C 97 % 994,0 hPa 0,0 l/m² 0 min 0 min 0 W/m² 12,9 km/h (3 Bft) 98,04 %
27.01.2026 23:46 4,0 °C 3,3 °C 0,0 °C 97 % 994,1 hPa 0,0 l/m² 0 min 0 min 0 W/m² 12,9 km/h (3 Bft) 95,65 %
27.01.2026 23:48 4,0 °C 3,3 °C 0,0 °C 97 % 994,1 hPa 0,0 l/m² 0 min 0 min 0 W/m² 16,1 km/h (3 Bft) 97,73 %
27.01.2026 23:50 4,0 °C 3,3 °C 0,0 °C 97 % 994,1 hPa 0,0 l/m² 0 min 0 min 0 W/m² 6,4 km/h (2 Bft) 96,08 %
27.01.2026 23:52 4,0 °C 3,3 °C 0,0 °C 97 % 994,1 hPa 0,0 l/m² 0 min 0 min 0 W/m² 16,1 km/h (3 Bft) 97,83 %
27.01.2026 23:54 4,0 °C 3,3 °C 0,0 °C 97 % 994,1 hPa 0,0 l/m² 0 min 0 min 0 W/m² 12,9 km/h (3 Bft) 97,67 %
27.01.2026 23:56 4,0 °C 3,3 °C 0,0 °C 97 % 994,2 hPa 0,0 l/m² 0 min 0 min 0 W/m² 22,5 km/h (4 Bft) 96,08 %
27.01.2026 23:58 4,0 °C 3,3 °C 0,0 °C 97 % 994,2 hPa 0,0 l/m² 0 min 0 min 0 W/m² 16,1 km/h (3 Bft) 97,83 %
_ Min-Zeit 06:52 06:20 06:18 15:02 15:18 - - - - 00:12 00:40
Minimum _ -1,0 °C -2,2 °C -5,0 °C 82 % 992,9 hPa - - - - 0,0 km/h (0 Bft) 39,39 %
_ Max-Zeit 14:42 13:46 13:28 07:34 00:00 16:38 00:00 18:08 13:48 12:52 00:00
Maximum _ 5,6 °C 5,6 °C 1,1 °C 97 % 1005,3 hPa 0,2 l/m² 0 min 5 min 144 W/m² 32,2 km/h
O-NO (5 Bft)
100,00 %
Durchschnitt _ 2,3 °C 1,8 °C -1,7 °C 94 % 997,5 hPa #4,6 l/m² #0 min. #3:38 h 61 W/m² 10,6 km/h (2 Bft) 96,91 %
© 2026 W. Hausmann